<?xml version="1.0" encoding="UTF-8" standalone="no" ?>
<gpx xmlns="http://www.topografix.com/GPX/1/1" xmlns:xsi="http://www.w3.org/2001/XMLSchema-instance" xsi:schemaLocation="http://www.topografix.com/GPX/1/1 http://www.topografix.com/GPX/1/1/gpx.xsd" version="1.1" creator="VisuGPX - https://www.visugpx.com">
  <metadata>
    <name>RSPG Circuit les Michons col de Saumane</name>
    <desc><![CDATA[Avant  Serres après le pont sur le BUECH prendre la route de la PIARRE  après avoir parcouru 800m se garer en bordure de route. Monter ensuite à droite par le sentier qui mène au hameau des MICHONS puis monter vers le col de SAUMANE, descendre ensuite vers le point de départ en empruntant le GR 94 et le chemin qui descend dans la vallée.]]></desc>
  </metadata>
  <trk>
    <name><![CDATA[Les Michons col de Saumanel: 23 OCT 2014 09:56]]></name>
    <trkseg>
      <trkpt lat="44.43649" lon="5.7099">
        <ele>669.22</ele>
        <time>2014-10-23T07:56:28Z</time>
      </trkpt>
      <trkpt lat="44.43649" lon="5.7099">
        <ele>670.18</ele>
        <time>2014-10-23T07:56:29Z</time>
      </trkpt>
      <trkpt lat="44.43649" lon="5.70989">
        <ele>673.06</ele>
        <time>2014-10-23T07:56:34Z</time>
      </trkpt>
      <trkpt lat="44.43649" lon="5.70991">
        <ele>676.91</ele>
        <time>2014-10-23T07:56:41Z</time>
      </trkpt>
      <trkpt lat="44.43649" lon="5.70991">
        <ele>676.91</ele>
        <time>2014-10-23T07:56:42Z</time>
      </trkpt>
      <trkpt lat="44.43651" lon="5.70992">
        <ele>680.27</ele>
        <time>2014-10-23T07:56:49Z</time>
      </trkpt>
      <trkpt lat="44.43651" lon="5.70993">
        <ele>683.63</ele>
        <time>2014-10-23T07:56:58Z</time>
      </trkpt>
      <trkpt lat="44.4365" lon="5.70993">
        <ele>685.56</ele>
        <time>2014-10-23T07:57:08Z</time>
      </trkpt>
      <trkpt lat="44.43653" lon="5.70989">
        <ele>688.92</ele>
        <time>2014-10-23T07:57:24Z</time>
      </trkpt>
      <trkpt lat="44.43653" lon="5.70988">
        <ele>689.4</ele>
        <time>2014-10-23T07:57:38Z</time>
      </trkpt>
      <trkpt lat="44.43654" lon="5.70989">
        <ele>688.92</ele>
        <time>2014-10-23T07:57:39Z</time>
      </trkpt>
      <trkpt lat="44.43657" lon="5.70982">
        <ele>690.84</ele>
        <time>2014-10-23T07:57:52Z</time>
      </trkpt>
      <trkpt lat="44.43656" lon="5.70982">
        <ele>690.84</ele>
        <time>2014-10-23T07:58:07Z</time>
      </trkpt>
      <trkpt lat="44.43655" lon="5.70978">
        <ele>691.33</ele>
        <time>2014-10-23T07:58:23Z</time>
      </trkpt>
      <trkpt lat="44.43656" lon="5.70978">
        <ele>691.33</ele>
        <time>2014-10-23T07:58:46Z</time>
      </trkpt>
      <trkpt lat="44.43655" lon="5.7098">
        <ele>691.33</ele>
        <time>2014-10-23T07:59:10Z</time>
      </trkpt>
      <trkpt lat="44.43657" lon="5.70975">
        <ele>692.29</ele>
        <time>2014-10-23T07:59:25Z</time>
      </trkpt>
      <trkpt lat="44.43656" lon="5.70977">
        <ele>692.29</ele>
        <time>2014-10-23T07:59:45Z</time>
      </trkpt>
      <trkpt lat="44.43656" lon="5.70974">
        <ele>692.77</ele>
        <time>2014-10-23T08:00:14Z</time>
      </trkpt>
      <trkpt lat="44.43656" lon="5.70975">
        <ele>692.29</ele>
        <time>2014-10-23T08:00:33Z</time>
      </trkpt>
      <trkpt lat="44.43656" lon="5.70974">
        <ele>692.77</ele>
        <time>2014-10-23T08:01:00Z</time>
      </trkpt>
      <trkpt lat="44.43655" lon="5.70962">
        <ele>692.77</ele>
        <time>2014-10-23T08:01:18Z</time>
      </trkpt>
      <trkpt lat="44.43655" lon="5.70961">
        <ele>692.29</ele>
        <time>2014-10-23T08:01:36Z</time>
      </trkpt>
      <trkpt lat="44.43656" lon="5.70963">
        <ele>692.29</ele>
        <time>2014-10-23T08:02:02Z</time>
      </trkpt>
      <trkpt lat="44.43654" lon="5.70958">
        <ele>692.29</ele>
        <time>2014-10-23T08:02:13Z</time>
      </trkpt>
      <trkpt lat="44.43656" lon="5.70949">
        <ele>693.25</ele>
        <time>2014-10-23T08:02:19Z</time>
      </trkpt>
      <trkpt lat="44.43657" lon="5.70934">
        <ele>696.13</ele>
        <time>2014-10-23T08:02:33Z</time>
      </trkpt>
      <trkpt lat="44.43657" lon="5.70918">
        <ele>697.57</ele>
        <time>2014-10-23T08:02:50Z</time>
      </trkpt>
      <trkpt lat="44.43656" lon="5.70905">
        <ele>698.53</ele>
        <time>2014-10-23T08:03:05Z</time>
      </trkpt>
      <trkpt lat="44.43658" lon="5.70892">
        <ele>699.5</ele>
        <time>2014-10-23T08:03:18Z</time>
      </trkpt>
      <trkpt lat="44.43667" lon="5.7088">
        <ele>701.42</ele>
        <time>2014-10-23T08:03:34Z</time>
      </trkpt>
      <trkpt lat="44.43668" lon="5.70878">
        <ele>700.46</ele>
        <time>2014-10-23T08:03:36Z</time>
      </trkpt>
      <trkpt lat="44.43675" lon="5.70865">
        <ele>700.46</ele>
        <time>2014-10-23T08:03:50Z</time>
      </trkpt>
      <trkpt lat="44.43683" lon="5.7085">
        <ele>702.86</ele>
        <time>2014-10-23T08:04:08Z</time>
      </trkpt>
      <trkpt lat="44.43691" lon="5.70838">
        <ele>702.86</ele>
        <time>2014-10-23T08:04:25Z</time>
      </trkpt>
      <trkpt lat="44.43697" lon="5.70826">
        <ele>704.3</ele>
        <time>2014-10-23T08:04:41Z</time>
      </trkpt>
      <trkpt lat="44.43703" lon="5.70814">
        <ele>706.23</ele>
        <time>2014-10-23T08:04:58Z</time>
      </trkpt>
      <trkpt lat="44.4371" lon="5.70804">
        <ele>707.19</ele>
        <time>2014-10-23T08:05:14Z</time>
      </trkpt>
      <trkpt lat="44.43719" lon="5.70798">
        <ele>709.59</ele>
        <time>2014-10-23T08:05:31Z</time>
      </trkpt>
      <trkpt lat="44.43723" lon="5.70786">
        <ele>711.99</ele>
        <time>2014-10-23T08:05:47Z</time>
      </trkpt>
      <trkpt lat="44.43728" lon="5.70779">
        <ele>713.44</ele>
        <time>2014-10-23T08:06:01Z</time>
      </trkpt>
      <trkpt lat="44.43733" lon="5.70771">
        <ele>715.36</ele>
        <time>2014-10-23T08:06:18Z</time>
      </trkpt>
      <trkpt lat="44.43739" lon="5.70763">
        <ele>717.28</ele>
        <time>2014-10-23T08:06:34Z</time>
      </trkpt>
      <trkpt lat="44.43745" lon="5.70756">
        <ele>718.24</ele>
        <time>2014-10-23T08:06:50Z</time>
      </trkpt>
      <trkpt lat="44.43746" lon="5.70755">
        <ele>719.68</ele>
        <time>2014-10-23T08:06:52Z</time>
      </trkpt>
      <trkpt lat="44.43753" lon="5.70744">
        <ele>722.57</ele>
        <time>2014-10-23T08:07:12Z</time>
      </trkpt>
      <trkpt lat="44.43759" lon="5.7074">
        <ele>723.05</ele>
        <time>2014-10-23T08:07:27Z</time>
      </trkpt>
      <trkpt lat="44.43764" lon="5.70731">
        <ele>725.93</ele>
        <time>2014-10-23T08:07:45Z</time>
      </trkpt>
      <trkpt lat="44.43771" lon="5.70726">
        <ele>727.37</ele>
        <time>2014-10-23T08:08:02Z</time>
      </trkpt>
      <trkpt lat="44.43776" lon="5.70719">
        <ele>730.26</ele>
        <time>2014-10-23T08:08:15Z</time>
      </trkpt>
      <trkpt lat="44.43783" lon="5.70709">
        <ele>731.7</ele>
        <time>2014-10-23T08:08:34Z</time>
      </trkpt>
      <trkpt lat="44.4379" lon="5.70701">
        <ele>734.58</ele>
        <time>2014-10-23T08:08:52Z</time>
      </trkpt>
      <trkpt lat="44.43796" lon="5.70694">
        <ele>735.55</ele>
        <time>2014-10-23T08:09:11Z</time>
      </trkpt>
      <trkpt lat="44.43802" lon="5.70687">
        <ele>737.95</ele>
        <time>2014-10-23T08:09:29Z</time>
      </trkpt>
      <trkpt lat="44.43809" lon="5.70682">
        <ele>739.87</ele>
        <time>2014-10-23T08:09:45Z</time>
      </trkpt>
      <trkpt lat="44.43816" lon="5.70674">
        <ele>742.28</ele>
        <time>2014-10-23T08:10:05Z</time>
      </trkpt>
      <trkpt lat="44.43821" lon="5.70665">
        <ele>744.2</ele>
        <time>2014-10-23T08:10:24Z</time>
      </trkpt>
      <trkpt lat="44.43826" lon="5.70657">
        <ele>745.16</ele>
        <time>2014-10-23T08:10:38Z</time>
      </trkpt>
      <trkpt lat="44.43831" lon="5.70644">
        <ele>747.56</ele>
        <time>2014-10-23T08:10:56Z</time>
      </trkpt>
      <trkpt lat="44.43836" lon="5.70627">
        <ele>748.52</ele>
        <time>2014-10-23T08:11:13Z</time>
      </trkpt>
      <trkpt lat="44.43839" lon="5.70611">
        <ele>749.97</ele>
        <time>2014-10-23T08:11:31Z</time>
      </trkpt>
      <trkpt lat="44.43843" lon="5.70596">
        <ele>751.89</ele>
        <time>2014-10-23T08:11:56Z</time>
      </trkpt>
      <trkpt lat="44.43846" lon="5.70585">
        <ele>754.77</ele>
        <time>2014-10-23T08:12:16Z</time>
      </trkpt>
      <trkpt lat="44.43849" lon="5.70569">
        <ele>758.14</ele>
        <time>2014-10-23T08:12:38Z</time>
      </trkpt>
      <trkpt lat="44.43852" lon="5.70555">
        <ele>759.1</ele>
        <time>2014-10-23T08:12:55Z</time>
      </trkpt>
      <trkpt lat="44.43856" lon="5.70541">
        <ele>761.02</ele>
        <time>2014-10-23T08:13:12Z</time>
      </trkpt>
      <trkpt lat="44.43859" lon="5.70528">
        <ele>763.42</ele>
        <time>2014-10-23T08:13:33Z</time>
      </trkpt>
      <trkpt lat="44.43861" lon="5.70519">
        <ele>764.87</ele>
        <time>2014-10-23T08:13:50Z</time>
      </trkpt>
      <trkpt lat="44.43861" lon="5.70509">
        <ele>766.79</ele>
        <time>2014-10-23T08:14:07Z</time>
      </trkpt>
      <trkpt lat="44.43864" lon="5.70499">
        <ele>768.71</ele>
        <time>2014-10-23T08:14:23Z</time>
      </trkpt>
      <trkpt lat="44.43868" lon="5.70489">
        <ele>771.6</ele>
        <time>2014-10-23T08:14:42Z</time>
      </trkpt>
      <trkpt lat="44.4387" lon="5.70474">
        <ele>774.48</ele>
        <time>2014-10-23T08:15:02Z</time>
      </trkpt>
      <trkpt lat="44.43874" lon="5.70464">
        <ele>775.92</ele>
        <time>2014-10-23T08:15:19Z</time>
      </trkpt>
      <trkpt lat="44.43878" lon="5.7045">
        <ele>776.88</ele>
        <time>2014-10-23T08:15:38Z</time>
      </trkpt>
      <trkpt lat="44.4388" lon="5.70442">
        <ele>780.25</ele>
        <time>2014-10-23T08:15:50Z</time>
      </trkpt>
      <trkpt lat="44.43889" lon="5.7043">
        <ele>780.73</ele>
        <time>2014-10-23T08:16:09Z</time>
      </trkpt>
      <trkpt lat="44.43896" lon="5.70414">
        <ele>782.65</ele>
        <time>2014-10-23T08:16:29Z</time>
      </trkpt>
      <trkpt lat="44.43903" lon="5.70402">
        <ele>784.57</ele>
        <time>2014-10-23T08:16:48Z</time>
      </trkpt>
      <trkpt lat="44.4391" lon="5.70388">
        <ele>786.02</ele>
        <time>2014-10-23T08:17:05Z</time>
      </trkpt>
      <trkpt lat="44.43914" lon="5.70373">
        <ele>786.5</ele>
        <time>2014-10-23T08:17:21Z</time>
      </trkpt>
      <trkpt lat="44.43919" lon="5.70363">
        <ele>787.94</ele>
        <time>2014-10-23T08:17:33Z</time>
      </trkpt>
      <trkpt lat="44.43932" lon="5.70352">
        <ele>786.5</ele>
        <time>2014-10-23T08:17:49Z</time>
      </trkpt>
      <trkpt lat="44.43935" lon="5.70349">
        <ele>788.9</ele>
        <time>2014-10-23T08:17:53Z</time>
      </trkpt>
      <trkpt lat="44.43938" lon="5.70332">
        <ele>786.02</ele>
        <time>2014-10-23T08:18:07Z</time>
      </trkpt>
      <trkpt lat="44.43945" lon="5.70318">
        <ele>785.53</ele>
        <time>2014-10-23T08:18:21Z</time>
      </trkpt>
      <trkpt lat="44.43952" lon="5.70306">
        <ele>784.09</ele>
        <time>2014-10-23T08:18:35Z</time>
      </trkpt>
      <trkpt lat="44.43957" lon="5.70298">
        <ele>784.09</ele>
        <time>2014-10-23T08:18:46Z</time>
      </trkpt>
      <trkpt lat="44.4397" lon="5.70289">
        <ele>784.09</ele>
        <time>2014-10-23T08:19:05Z</time>
      </trkpt>
      <trkpt lat="44.43981" lon="5.7029">
        <ele>785.05</ele>
        <time>2014-10-23T08:19:23Z</time>
      </trkpt>
      <trkpt lat="44.43992" lon="5.70289">
        <ele>784.09</ele>
        <time>2014-10-23T08:19:40Z</time>
      </trkpt>
      <trkpt lat="44.43995" lon="5.70288">
        <ele>787.46</ele>
        <time>2014-10-23T08:19:46Z</time>
      </trkpt>
      <trkpt lat="44.4401" lon="5.70289">
        <ele>786.02</ele>
        <time>2014-10-23T08:20:03Z</time>
      </trkpt>
      <trkpt lat="44.44017" lon="5.70285">
        <ele>788.9</ele>
        <time>2014-10-23T08:20:17Z</time>
      </trkpt>
      <trkpt lat="44.44023" lon="5.70283">
        <ele>788.9</ele>
        <time>2014-10-23T08:20:31Z</time>
      </trkpt>
      <trkpt lat="44.44031" lon="5.70284">
        <ele>791.78</ele>
        <time>2014-10-23T08:20:48Z</time>
      </trkpt>
      <trkpt lat="44.44033" lon="5.70286">
        <ele>794.19</ele>
        <time>2014-10-23T08:20:53Z</time>
      </trkpt>
      <trkpt lat="44.44039" lon="5.70285">
        <ele>796.11</ele>
        <time>2014-10-23T08:21:07Z</time>
      </trkpt>
      <trkpt lat="44.44048" lon="5.70284">
        <ele>797.55</ele>
        <time>2014-10-23T08:21:25Z</time>
      </trkpt>
      <trkpt lat="44.44057" lon="5.70282">
        <ele>799.95</ele>
        <time>2014-10-23T08:21:40Z</time>
      </trkpt>
      <trkpt lat="44.44063" lon="5.70283">
        <ele>800.44</ele>
        <time>2014-10-23T08:21:51Z</time>
      </trkpt>
      <trkpt lat="44.4407" lon="5.70277">
        <ele>801.88</ele>
        <time>2014-10-23T08:22:06Z</time>
      </trkpt>
      <trkpt lat="44.44081" lon="5.70272">
        <ele>803.32</ele>
        <time>2014-10-23T08:22:23Z</time>
      </trkpt>
      <trkpt lat="44.4409" lon="5.70267">
        <ele>803.32</ele>
        <time>2014-10-23T08:22:37Z</time>
      </trkpt>
      <trkpt lat="44.441" lon="5.7026">
        <ele>805.72</ele>
        <time>2014-10-23T08:22:54Z</time>
      </trkpt>
      <trkpt lat="44.44104" lon="5.70257">
        <ele>807.16</ele>
        <time>2014-10-23T08:23:00Z</time>
      </trkpt>
      <trkpt lat="44.4411" lon="5.70246">
        <ele>806.68</ele>
        <time>2014-10-23T08:23:13Z</time>
      </trkpt>
      <trkpt lat="44.44114" lon="5.70244">
        <ele>804.76</ele>
        <time>2014-10-23T08:23:18Z</time>
      </trkpt>
      <trkpt lat="44.44117" lon="5.70242">
        <ele>808.13</ele>
        <time>2014-10-23T08:23:24Z</time>
      </trkpt>
      <trkpt lat="44.44118" lon="5.70241">
        <ele>808.13</ele>
        <time>2014-10-23T08:23:25Z</time>
      </trkpt>
      <trkpt lat="44.44125" lon="5.70235">
        <ele>808.61</ele>
        <time>2014-10-23T08:23:42Z</time>
      </trkpt>
      <trkpt lat="44.44134" lon="5.70228">
        <ele>811.01</ele>
        <time>2014-10-23T08:23:58Z</time>
      </trkpt>
      <trkpt lat="44.44143" lon="5.70215">
        <ele>811.01</ele>
        <time>2014-10-23T08:24:15Z</time>
      </trkpt>
      <trkpt lat="44.44152" lon="5.70215">
        <ele>811.01</ele>
        <time>2014-10-23T08:24:27Z</time>
      </trkpt>
      <trkpt lat="44.44162" lon="5.70213">
        <ele>813.89</ele>
        <time>2014-10-23T08:24:41Z</time>
      </trkpt>
      <trkpt lat="44.44174" lon="5.70205">
        <ele>813.41</ele>
        <time>2014-10-23T08:24:57Z</time>
      </trkpt>
      <trkpt lat="44.44184" lon="5.70196">
        <ele>814.37</ele>
        <time>2014-10-23T08:25:12Z</time>
      </trkpt>
      <trkpt lat="44.44191" lon="5.70189">
        <ele>813.89</ele>
        <time>2014-10-23T08:25:21Z</time>
      </trkpt>
      <trkpt lat="44.44202" lon="5.70183">
        <ele>813.41</ele>
        <time>2014-10-23T08:25:35Z</time>
      </trkpt>
      <trkpt lat="44.44212" lon="5.70179">
        <ele>814.37</ele>
        <time>2014-10-23T08:25:49Z</time>
      </trkpt>
      <trkpt lat="44.44223" lon="5.70177">
        <ele>816.3</ele>
        <time>2014-10-23T08:26:04Z</time>
      </trkpt>
      <trkpt lat="44.44234" lon="5.70174">
        <ele>817.26</ele>
        <time>2014-10-23T08:26:18Z</time>
      </trkpt>
      <trkpt lat="44.44241" lon="5.70173">
        <ele>817.74</ele>
        <time>2014-10-23T08:26:28Z</time>
      </trkpt>
      <trkpt lat="44.44242" lon="5.70173">
        <ele>817.26</ele>
        <time>2014-10-23T08:26:29Z</time>
      </trkpt>
      <trkpt lat="44.44244" lon="5.70173">
        <ele>816.3</ele>
        <time>2014-10-23T08:26:31Z</time>
      </trkpt>
      <trkpt lat="44.44259" lon="5.70172">
        <ele>815.34</ele>
        <time>2014-10-23T08:26:50Z</time>
      </trkpt>
      <trkpt lat="44.44266" lon="5.70172">
        <ele>813.41</ele>
        <time>2014-10-23T08:26:59Z</time>
      </trkpt>
      <trkpt lat="44.44268" lon="5.70172">
        <ele>815.34</ele>
        <time>2014-10-23T08:27:02Z</time>
      </trkpt>
      <trkpt lat="44.44274" lon="5.70169">
        <ele>813.41</ele>
        <time>2014-10-23T08:27:09Z</time>
      </trkpt>
      <trkpt lat="44.44279" lon="5.70167">
        <ele>814.37</ele>
        <time>2014-10-23T08:27:14Z</time>
      </trkpt>
      <trkpt lat="44.4429" lon="5.7016">
        <ele>812.93</ele>
        <time>2014-10-23T08:27:27Z</time>
      </trkpt>
      <trkpt lat="44.44298" lon="5.70149">
        <ele>810.53</ele>
        <time>2014-10-23T08:27:45Z</time>
      </trkpt>
      <trkpt lat="44.44298" lon="5.70147">
        <ele>809.09</ele>
        <time>2014-10-23T08:27:52Z</time>
      </trkpt>
      <trkpt lat="44.44304" lon="5.7014">
        <ele>811.01</ele>
        <time>2014-10-23T08:28:07Z</time>
      </trkpt>
      <trkpt lat="44.44309" lon="5.70135">
        <ele>807.64</ele>
        <time>2014-10-23T08:28:21Z</time>
      </trkpt>
      <trkpt lat="44.44311" lon="5.70129">
        <ele>806.68</ele>
        <time>2014-10-23T08:28:35Z</time>
      </trkpt>
      <trkpt lat="44.44312" lon="5.70129">
        <ele>806.2</ele>
        <time>2014-10-23T08:28:54Z</time>
      </trkpt>
      <trkpt lat="44.44311" lon="5.70129">
        <ele>807.16</ele>
        <time>2014-10-23T08:29:26Z</time>
      </trkpt>
      <trkpt lat="44.44315" lon="5.70132">
        <ele>806.2</ele>
        <time>2014-10-23T08:29:49Z</time>
      </trkpt>
      <trkpt lat="44.44314" lon="5.70129">
        <ele>804.28</ele>
        <time>2014-10-23T08:30:21Z</time>
      </trkpt>
      <trkpt lat="44.44315" lon="5.70129">
        <ele>805.24</ele>
        <time>2014-10-23T08:30:23Z</time>
      </trkpt>
      <trkpt lat="44.44315" lon="5.70132">
        <ele>806.68</ele>
        <time>2014-10-23T08:30:40Z</time>
      </trkpt>
      <trkpt lat="44.44315" lon="5.70134">
        <ele>805.24</ele>
        <time>2014-10-23T08:31:03Z</time>
      </trkpt>
      <trkpt lat="44.44319" lon="5.70126">
        <ele>803.8</ele>
        <time>2014-10-23T08:31:25Z</time>
      </trkpt>
      <trkpt lat="44.44322" lon="5.70121">
        <ele>800.44</ele>
        <time>2014-10-23T08:31:33Z</time>
      </trkpt>
      <trkpt lat="44.44325" lon="5.70116">
        <ele>800.44</ele>
        <time>2014-10-23T08:31:43Z</time>
      </trkpt>
      <trkpt lat="44.4433" lon="5.70106">
        <ele>799.95</ele>
        <time>2014-10-23T08:31:58Z</time>
      </trkpt>
      <trkpt lat="44.4433" lon="5.70105">
        <ele>798.99</ele>
        <time>2014-10-23T08:32:00Z</time>
      </trkpt>
      <trkpt lat="44.44332" lon="5.701">
        <ele>796.11</ele>
        <time>2014-10-23T08:32:06Z</time>
      </trkpt>
      <trkpt lat="44.44334" lon="5.70092">
        <ele>794.67</ele>
        <time>2014-10-23T08:32:17Z</time>
      </trkpt>
      <trkpt lat="44.44339" lon="5.70081">
        <ele>792.26</ele>
        <time>2014-10-23T08:32:32Z</time>
      </trkpt>
      <trkpt lat="44.44338" lon="5.70069">
        <ele>788.9</ele>
        <time>2014-10-23T08:32:46Z</time>
      </trkpt>
      <trkpt lat="44.44335" lon="5.70059">
        <ele>786.98</ele>
        <time>2014-10-23T08:33:00Z</time>
      </trkpt>
      <trkpt lat="44.44332" lon="5.70052">
        <ele>785.53</ele>
        <time>2014-10-23T08:33:16Z</time>
      </trkpt>
      <trkpt lat="44.44333" lon="5.70031">
        <ele>784.09</ele>
        <time>2014-10-23T08:33:33Z</time>
      </trkpt>
      <trkpt lat="44.44339" lon="5.70019">
        <ele>786.5</ele>
        <time>2014-10-23T08:33:50Z</time>
      </trkpt>
      <trkpt lat="44.44346" lon="5.70008">
        <ele>788.9</ele>
        <time>2014-10-23T08:34:09Z</time>
      </trkpt>
      <trkpt lat="44.44352" lon="5.69998">
        <ele>791.78</ele>
        <time>2014-10-23T08:34:27Z</time>
      </trkpt>
      <trkpt lat="44.44359" lon="5.69987">
        <ele>793.71</ele>
        <time>2014-10-23T08:34:44Z</time>
      </trkpt>
      <trkpt lat="44.44363" lon="5.69973">
        <ele>797.07</ele>
        <time>2014-10-23T08:35:04Z</time>
      </trkpt>
      <trkpt lat="44.44368" lon="5.69958">
        <ele>797.55</ele>
        <time>2014-10-23T08:35:21Z</time>
      </trkpt>
      <trkpt lat="44.44376" lon="5.69947">
        <ele>797.55</ele>
        <time>2014-10-23T08:35:40Z</time>
      </trkpt>
      <trkpt lat="44.44384" lon="5.69938">
        <ele>799.95</ele>
        <time>2014-10-23T08:35:55Z</time>
      </trkpt>
      <trkpt lat="44.44392" lon="5.69927">
        <ele>802.36</ele>
        <time>2014-10-23T08:36:13Z</time>
      </trkpt>
      <trkpt lat="44.44397" lon="5.69921">
        <ele>802.36</ele>
        <time>2014-10-23T08:36:32Z</time>
      </trkpt>
      <trkpt lat="44.44398" lon="5.69919">
        <ele>799.47</ele>
        <time>2014-10-23T08:37:03Z</time>
      </trkpt>
      <trkpt lat="44.44395" lon="5.69917">
        <ele>801.88</ele>
        <time>2014-10-23T08:37:13Z</time>
      </trkpt>
      <trkpt lat="44.44403" lon="5.69923">
        <ele>802.84</ele>
        <time>2014-10-23T08:37:45Z</time>
      </trkpt>
      <trkpt lat="44.44403" lon="5.69923">
        <ele>802.84</ele>
        <time>2014-10-23T08:38:15Z</time>
      </trkpt>
      <trkpt lat="44.44405" lon="5.69911">
        <ele>804.28</ele>
        <time>2014-10-23T08:38:34Z</time>
      </trkpt>
      <trkpt lat="44.44411" lon="5.699">
        <ele>805.24</ele>
        <time>2014-10-23T08:38:49Z</time>
      </trkpt>
      <trkpt lat="44.44418" lon="5.69892">
        <ele>807.64</ele>
        <time>2014-10-23T08:39:04Z</time>
      </trkpt>
      <trkpt lat="44.44422" lon="5.69885">
        <ele>807.64</ele>
        <time>2014-10-23T08:39:17Z</time>
      </trkpt>
      <trkpt lat="44.4442" lon="5.69879">
        <ele>809.57</ele>
        <time>2014-10-23T08:39:35Z</time>
      </trkpt>
      <trkpt lat="44.44421" lon="5.6988">
        <ele>809.57</ele>
        <time>2014-10-23T08:39:51Z</time>
      </trkpt>
      <trkpt lat="44.4442" lon="5.69879">
        <ele>810.05</ele>
        <time>2014-10-23T08:40:17Z</time>
      </trkpt>
      <trkpt lat="44.44429" lon="5.69875">
        <ele>811.01</ele>
        <time>2014-10-23T08:40:36Z</time>
      </trkpt>
      <trkpt lat="44.44435" lon="5.69865">
        <ele>812.45</ele>
        <time>2014-10-23T08:40:52Z</time>
      </trkpt>
      <trkpt lat="44.44442" lon="5.69855">
        <ele>815.82</ele>
        <time>2014-10-23T08:41:05Z</time>
      </trkpt>
      <trkpt lat="44.44449" lon="5.69843">
        <ele>817.74</ele>
        <time>2014-10-23T08:41:20Z</time>
      </trkpt>
      <trkpt lat="44.44459" lon="5.69832">
        <ele>818.7</ele>
        <time>2014-10-23T08:41:38Z</time>
      </trkpt>
      <trkpt lat="44.44465" lon="5.69826">
        <ele>821.58</ele>
        <time>2014-10-23T08:41:52Z</time>
      </trkpt>
      <trkpt lat="44.44474" lon="5.69816">
        <ele>823.99</ele>
        <time>2014-10-23T08:42:08Z</time>
      </trkpt>
      <trkpt lat="44.44484" lon="5.69807">
        <ele>825.91</ele>
        <time>2014-10-23T08:42:26Z</time>
      </trkpt>
      <trkpt lat="44.44498" lon="5.69808">
        <ele>827.83</ele>
        <time>2014-10-23T08:42:44Z</time>
      </trkpt>
      <trkpt lat="44.44508" lon="5.69802">
        <ele>829.76</ele>
        <time>2014-10-23T08:42:58Z</time>
      </trkpt>
      <trkpt lat="44.44515" lon="5.69797">
        <ele>830.72</ele>
        <time>2014-10-23T08:43:13Z</time>
      </trkpt>
      <trkpt lat="44.44521" lon="5.69794">
        <ele>833.12</ele>
        <time>2014-10-23T08:43:25Z</time>
      </trkpt>
      <trkpt lat="44.44529" lon="5.69788">
        <ele>834.08</ele>
        <time>2014-10-23T08:43:40Z</time>
      </trkpt>
      <trkpt lat="44.44533" lon="5.69784">
        <ele>835.04</ele>
        <time>2014-10-23T08:43:52Z</time>
      </trkpt>
      <trkpt lat="44.44538" lon="5.69773">
        <ele>835.52</ele>
        <time>2014-10-23T08:44:07Z</time>
      </trkpt>
      <trkpt lat="44.4454" lon="5.69765">
        <ele>836.48</ele>
        <time>2014-10-23T08:44:22Z</time>
      </trkpt>
      <trkpt lat="44.44541" lon="5.69753">
        <ele>836.96</ele>
        <time>2014-10-23T08:44:42Z</time>
      </trkpt>
      <trkpt lat="44.44542" lon="5.6975">
        <ele>836.96</ele>
        <time>2014-10-23T08:45:00Z</time>
      </trkpt>
      <trkpt lat="44.4454" lon="5.69737">
        <ele>837.45</ele>
        <time>2014-10-23T08:45:17Z</time>
      </trkpt>
      <trkpt lat="44.44536" lon="5.69724">
        <ele>838.89</ele>
        <time>2014-10-23T08:45:34Z</time>
      </trkpt>
      <trkpt lat="44.44528" lon="5.69708">
        <ele>838.89</ele>
        <time>2014-10-23T08:45:51Z</time>
      </trkpt>
      <trkpt lat="44.44522" lon="5.69692">
        <ele>838.89</ele>
        <time>2014-10-23T08:46:06Z</time>
      </trkpt>
      <trkpt lat="44.44519" lon="5.69683">
        <ele>838.89</ele>
        <time>2014-10-23T08:46:25Z</time>
      </trkpt>
      <trkpt lat="44.44519" lon="5.69679">
        <ele>839.37</ele>
        <time>2014-10-23T08:46:48Z</time>
      </trkpt>
      <trkpt lat="44.44519" lon="5.69677">
        <ele>838.89</ele>
        <time>2014-10-23T08:47:05Z</time>
      </trkpt>
      <trkpt lat="44.44523" lon="5.69676">
        <ele>838.89</ele>
        <time>2014-10-23T08:47:29Z</time>
      </trkpt>
      <trkpt lat="44.44522" lon="5.69679">
        <ele>838.41</ele>
        <time>2014-10-23T08:47:40Z</time>
      </trkpt>
      <trkpt lat="44.4452" lon="5.69675">
        <ele>839.37</ele>
        <time>2014-10-23T08:47:48Z</time>
      </trkpt>
      <trkpt lat="44.44507" lon="5.69665">
        <ele>840.33</ele>
        <time>2014-10-23T08:48:04Z</time>
      </trkpt>
      <trkpt lat="44.44495" lon="5.69655">
        <ele>841.77</ele>
        <time>2014-10-23T08:48:21Z</time>
      </trkpt>
      <trkpt lat="44.44495" lon="5.69648">
        <ele>840.81</ele>
        <time>2014-10-23T08:48:27Z</time>
      </trkpt>
      <trkpt lat="44.445" lon="5.69619">
        <ele>840.81</ele>
        <time>2014-10-23T08:48:46Z</time>
      </trkpt>
      <trkpt lat="44.44501" lon="5.69607">
        <ele>839.37</ele>
        <time>2014-10-23T08:48:59Z</time>
      </trkpt>
      <trkpt lat="44.44498" lon="5.69605">
        <ele>841.77</ele>
        <time>2014-10-23T08:49:16Z</time>
      </trkpt>
      <trkpt lat="44.44496" lon="5.69591">
        <ele>842.25</ele>
        <time>2014-10-23T08:49:39Z</time>
      </trkpt>
      <trkpt lat="44.44499" lon="5.69573">
        <ele>842.73</ele>
        <time>2014-10-23T08:49:53Z</time>
      </trkpt>
      <trkpt lat="44.44501" lon="5.69552">
        <ele>843.21</ele>
        <time>2014-10-23T08:50:08Z</time>
      </trkpt>
      <trkpt lat="44.44501" lon="5.6953">
        <ele>842.73</ele>
        <time>2014-10-23T08:50:26Z</time>
      </trkpt>
      <trkpt lat="44.44501" lon="5.69525">
        <ele>842.73</ele>
        <time>2014-10-23T08:50:30Z</time>
      </trkpt>
      <trkpt lat="44.44496" lon="5.69509">
        <ele>843.21</ele>
        <time>2014-10-23T08:50:47Z</time>
      </trkpt>
      <trkpt lat="44.44492" lon="5.695">
        <ele>842.73</ele>
        <time>2014-10-23T08:51:02Z</time>
      </trkpt>
      <trkpt lat="44.44486" lon="5.69486">
        <ele>843.21</ele>
        <time>2014-10-23T08:51:18Z</time>
      </trkpt>
      <trkpt lat="44.44482" lon="5.69476">
        <ele>844.66</ele>
        <time>2014-10-23T08:51:34Z</time>
      </trkpt>
      <trkpt lat="44.44481" lon="5.69469">
        <ele>848.02</ele>
        <time>2014-10-23T08:51:45Z</time>
      </trkpt>
      <trkpt lat="44.44482" lon="5.69461">
        <ele>849.94</ele>
        <time>2014-10-23T08:52:00Z</time>
      </trkpt>
      <trkpt lat="44.44485" lon="5.69456">
        <ele>849.46</ele>
        <time>2014-10-23T08:52:13Z</time>
      </trkpt>
      <trkpt lat="44.44487" lon="5.69453">
        <ele>848.02</ele>
        <time>2014-10-23T08:52:26Z</time>
      </trkpt>
      <trkpt lat="44.44493" lon="5.69452">
        <ele>848.02</ele>
        <time>2014-10-23T08:52:38Z</time>
      </trkpt>
      <trkpt lat="44.445" lon="5.69447">
        <ele>848.5</ele>
        <time>2014-10-23T08:52:50Z</time>
      </trkpt>
      <trkpt lat="44.44507" lon="5.69441">
        <ele>849.94</ele>
        <time>2014-10-23T08:53:01Z</time>
      </trkpt>
      <trkpt lat="44.44511" lon="5.69427">
        <ele>851.87</ele>
        <time>2014-10-23T08:53:16Z</time>
      </trkpt>
      <trkpt lat="44.44516" lon="5.69416">
        <ele>852.83</ele>
        <time>2014-10-23T08:53:30Z</time>
      </trkpt>
      <trkpt lat="44.4452" lon="5.69406">
        <ele>854.27</ele>
        <time>2014-10-23T08:53:44Z</time>
      </trkpt>
      <trkpt lat="44.44526" lon="5.69404">
        <ele>857.15</ele>
        <time>2014-10-23T08:53:59Z</time>
      </trkpt>
      <trkpt lat="44.44533" lon="5.69403">
        <ele>859.08</ele>
        <time>2014-10-23T08:54:11Z</time>
      </trkpt>
      <trkpt lat="44.44537" lon="5.69392">
        <ele>860.52</ele>
        <time>2014-10-23T08:54:26Z</time>
      </trkpt>
      <trkpt lat="44.4454" lon="5.69387">
        <ele>861</ele>
        <time>2014-10-23T08:54:40Z</time>
      </trkpt>
      <trkpt lat="44.44548" lon="5.69381">
        <ele>861.96</ele>
        <time>2014-10-23T08:54:59Z</time>
      </trkpt>
      <trkpt lat="44.44553" lon="5.69372">
        <ele>860.52</ele>
        <time>2014-10-23T08:55:16Z</time>
      </trkpt>
      <trkpt lat="44.44555" lon="5.69364">
        <ele>861</ele>
        <time>2014-10-23T08:55:34Z</time>
      </trkpt>
      <trkpt lat="44.4456" lon="5.69354">
        <ele>860.52</ele>
        <time>2014-10-23T08:55:46Z</time>
      </trkpt>
      <trkpt lat="44.44563" lon="5.69342">
        <ele>863.88</ele>
        <time>2014-10-23T08:56:00Z</time>
      </trkpt>
      <trkpt lat="44.44564" lon="5.69339">
        <ele>864.84</ele>
        <time>2014-10-23T08:56:06Z</time>
      </trkpt>
      <trkpt lat="44.44566" lon="5.69331">
        <ele>866.77</ele>
        <time>2014-10-23T08:56:21Z</time>
      </trkpt>
      <trkpt lat="44.44567" lon="5.69327">
        <ele>866.77</ele>
        <time>2014-10-23T08:56:29Z</time>
      </trkpt>
      <trkpt lat="44.4457" lon="5.69316">
        <ele>869.17</ele>
        <time>2014-10-23T08:56:43Z</time>
      </trkpt>
      <trkpt lat="44.4457" lon="5.69315">
        <ele>869.17</ele>
        <time>2014-10-23T08:56:44Z</time>
      </trkpt>
      <trkpt lat="44.44566" lon="5.69309">
        <ele>870.61</ele>
        <time>2014-10-23T08:57:01Z</time>
      </trkpt>
      <trkpt lat="44.4456" lon="5.69293">
        <ele>872.05</ele>
        <time>2014-10-23T08:57:16Z</time>
      </trkpt>
      <trkpt lat="44.44559" lon="5.69288">
        <ele>872.53</ele>
        <time>2014-10-23T08:57:20Z</time>
      </trkpt>
      <trkpt lat="44.44558" lon="5.69266">
        <ele>874.94</ele>
        <time>2014-10-23T08:57:37Z</time>
      </trkpt>
      <trkpt lat="44.44558" lon="5.6925">
        <ele>875.42</ele>
        <time>2014-10-23T08:57:51Z</time>
      </trkpt>
      <trkpt lat="44.44558" lon="5.69234">
        <ele>874.94</ele>
        <time>2014-10-23T08:58:05Z</time>
      </trkpt>
      <trkpt lat="44.44555" lon="5.69212">
        <ele>873.98</ele>
        <time>2014-10-23T08:58:21Z</time>
      </trkpt>
      <trkpt lat="44.44554" lon="5.69193">
        <ele>873.01</ele>
        <time>2014-10-23T08:58:37Z</time>
      </trkpt>
      <trkpt lat="44.44554" lon="5.69191">
        <ele>871.57</ele>
        <time>2014-10-23T08:58:39Z</time>
      </trkpt>
      <trkpt lat="44.44551" lon="5.69171">
        <ele>870.61</ele>
        <time>2014-10-23T08:58:56Z</time>
      </trkpt>
      <trkpt lat="44.44549" lon="5.69155">
        <ele>871.09</ele>
        <time>2014-10-23T08:59:12Z</time>
      </trkpt>
      <trkpt lat="44.44551" lon="5.69149">
        <ele>872.53</ele>
        <time>2014-10-23T08:59:16Z</time>
      </trkpt>
      <trkpt lat="44.44558" lon="5.69139">
        <ele>873.5</ele>
        <time>2014-10-23T08:59:31Z</time>
      </trkpt>
      <trkpt lat="44.44562" lon="5.69127">
        <ele>875.42</ele>
        <time>2014-10-23T08:59:44Z</time>
      </trkpt>
      <trkpt lat="44.44571" lon="5.69119">
        <ele>873.5</ele>
        <time>2014-10-23T08:59:59Z</time>
      </trkpt>
      <trkpt lat="44.44579" lon="5.69106">
        <ele>871.57</ele>
        <time>2014-10-23T09:00:14Z</time>
      </trkpt>
      <trkpt lat="44.44585" lon="5.69099">
        <ele>871.57</ele>
        <time>2014-10-23T09:00:25Z</time>
      </trkpt>
      <trkpt lat="44.44598" lon="5.69093">
        <ele>871.57</ele>
        <time>2014-10-23T09:00:41Z</time>
      </trkpt>
      <trkpt lat="44.44609" lon="5.69086">
        <ele>870.61</ele>
        <time>2014-10-23T09:00:55Z</time>
      </trkpt>
      <trkpt lat="44.44618" lon="5.69077">
        <ele>869.65</ele>
        <time>2014-10-23T09:01:10Z</time>
      </trkpt>
      <trkpt lat="44.4463" lon="5.69068">
        <ele>870.61</ele>
        <time>2014-10-23T09:01:24Z</time>
      </trkpt>
      <trkpt lat="44.44639" lon="5.69057">
        <ele>870.13</ele>
        <time>2014-10-23T09:01:37Z</time>
      </trkpt>
      <trkpt lat="44.44647" lon="5.69045">
        <ele>872.05</ele>
        <time>2014-10-23T09:01:53Z</time>
      </trkpt>
      <trkpt lat="44.44652" lon="5.69032">
        <ele>874.46</ele>
        <time>2014-10-23T09:02:09Z</time>
      </trkpt>
      <trkpt lat="44.44657" lon="5.69018">
        <ele>875.9</ele>
        <time>2014-10-23T09:02:27Z</time>
      </trkpt>
      <trkpt lat="44.44665" lon="5.69007">
        <ele>876.86</ele>
        <time>2014-10-23T09:02:43Z</time>
      </trkpt>
      <trkpt lat="44.44671" lon="5.69">
        <ele>878.78</ele>
        <time>2014-10-23T09:02:56Z</time>
      </trkpt>
      <trkpt lat="44.44676" lon="5.6899">
        <ele>880.71</ele>
        <time>2014-10-23T09:03:10Z</time>
      </trkpt>
      <trkpt lat="44.44679" lon="5.68974">
        <ele>880.22</ele>
        <time>2014-10-23T09:03:28Z</time>
      </trkpt>
      <trkpt lat="44.44684" lon="5.6896">
        <ele>881.19</ele>
        <time>2014-10-23T09:03:42Z</time>
      </trkpt>
      <trkpt lat="44.44688" lon="5.68953">
        <ele>880.71</ele>
        <time>2014-10-23T09:03:55Z</time>
      </trkpt>
      <trkpt lat="44.44691" lon="5.6894">
        <ele>880.71</ele>
        <time>2014-10-23T09:04:09Z</time>
      </trkpt>
      <trkpt lat="44.44691" lon="5.68935">
        <ele>880.71</ele>
        <time>2014-10-23T09:04:14Z</time>
      </trkpt>
      <trkpt lat="44.44692" lon="5.68922">
        <ele>883.11</ele>
        <time>2014-10-23T09:04:31Z</time>
      </trkpt>
      <trkpt lat="44.4469" lon="5.6892">
        <ele>882.63</ele>
        <time>2014-10-23T09:04:35Z</time>
      </trkpt>
      <trkpt lat="44.44682" lon="5.68908">
        <ele>885.03</ele>
        <time>2014-10-23T09:04:52Z</time>
      </trkpt>
      <trkpt lat="44.44679" lon="5.68892">
        <ele>886.47</ele>
        <time>2014-10-23T09:05:07Z</time>
      </trkpt>
      <trkpt lat="44.44677" lon="5.68883">
        <ele>888.4</ele>
        <time>2014-10-23T09:05:20Z</time>
      </trkpt>
      <trkpt lat="44.44676" lon="5.68872">
        <ele>889.36</ele>
        <time>2014-10-23T09:05:36Z</time>
      </trkpt>
      <trkpt lat="44.44673" lon="5.68868">
        <ele>891.28</ele>
        <time>2014-10-23T09:05:54Z</time>
      </trkpt>
      <trkpt lat="44.44672" lon="5.68854">
        <ele>890.8</ele>
        <time>2014-10-23T09:06:09Z</time>
      </trkpt>
      <trkpt lat="44.44667" lon="5.6884">
        <ele>892.72</ele>
        <time>2014-10-23T09:06:26Z</time>
      </trkpt>
      <trkpt lat="44.44663" lon="5.68826">
        <ele>895.12</ele>
        <time>2014-10-23T09:06:42Z</time>
      </trkpt>
      <trkpt lat="44.44664" lon="5.68816">
        <ele>896.57</ele>
        <time>2014-10-23T09:06:58Z</time>
      </trkpt>
      <trkpt lat="44.44662" lon="5.688">
        <ele>898.01</ele>
        <time>2014-10-23T09:07:15Z</time>
      </trkpt>
      <trkpt lat="44.44665" lon="5.68794">
        <ele>898.97</ele>
        <time>2014-10-23T09:07:32Z</time>
      </trkpt>
      <trkpt lat="44.44666" lon="5.68782">
        <ele>898.97</ele>
        <time>2014-10-23T09:07:50Z</time>
      </trkpt>
      <trkpt lat="44.44666" lon="5.68777">
        <ele>898.49</ele>
        <time>2014-10-23T09:08:14Z</time>
      </trkpt>
      <trkpt lat="44.44663" lon="5.68764">
        <ele>900.89</ele>
        <time>2014-10-23T09:08:30Z</time>
      </trkpt>
      <trkpt lat="44.44662" lon="5.6875">
        <ele>900.41</ele>
        <time>2014-10-23T09:08:43Z</time>
      </trkpt>
      <trkpt lat="44.44661" lon="5.68737">
        <ele>903.78</ele>
        <time>2014-10-23T09:08:56Z</time>
      </trkpt>
      <trkpt lat="44.44658" lon="5.68724">
        <ele>906.18</ele>
        <time>2014-10-23T09:09:10Z</time>
      </trkpt>
      <trkpt lat="44.44661" lon="5.68708">
        <ele>906.18</ele>
        <time>2014-10-23T09:09:26Z</time>
      </trkpt>
      <trkpt lat="44.44668" lon="5.68695">
        <ele>906.18</ele>
        <time>2014-10-23T09:09:42Z</time>
      </trkpt>
      <trkpt lat="44.44679" lon="5.68689">
        <ele>906.66</ele>
        <time>2014-10-23T09:09:58Z</time>
      </trkpt>
      <trkpt lat="44.44689" lon="5.68681">
        <ele>906.66</ele>
        <time>2014-10-23T09:10:11Z</time>
      </trkpt>
      <trkpt lat="44.447" lon="5.68671">
        <ele>906.66</ele>
        <time>2014-10-23T09:10:26Z</time>
      </trkpt>
      <trkpt lat="44.44707" lon="5.68663">
        <ele>906.18</ele>
        <time>2014-10-23T09:10:37Z</time>
      </trkpt>
      <trkpt lat="44.44709" lon="5.68649">
        <ele>906.18</ele>
        <time>2014-10-23T09:10:50Z</time>
      </trkpt>
      <trkpt lat="44.44719" lon="5.68643">
        <ele>906.18</ele>
        <time>2014-10-23T09:11:01Z</time>
      </trkpt>
      <trkpt lat="44.44728" lon="5.68637">
        <ele>904.74</ele>
        <time>2014-10-23T09:11:12Z</time>
      </trkpt>
      <trkpt lat="44.44735" lon="5.68625">
        <ele>903.3</ele>
        <time>2014-10-23T09:11:27Z</time>
      </trkpt>
      <trkpt lat="44.44744" lon="5.68617">
        <ele>902.82</ele>
        <time>2014-10-23T09:11:39Z</time>
      </trkpt>
      <trkpt lat="44.44752" lon="5.68607">
        <ele>902.82</ele>
        <time>2014-10-23T09:11:51Z</time>
      </trkpt>
      <trkpt lat="44.44762" lon="5.68598">
        <ele>900.89</ele>
        <time>2014-10-23T09:12:06Z</time>
      </trkpt>
      <trkpt lat="44.4477" lon="5.68593">
        <ele>898.01</ele>
        <time>2014-10-23T09:12:18Z</time>
      </trkpt>
      <trkpt lat="44.44777" lon="5.68588">
        <ele>896.57</ele>
        <time>2014-10-23T09:12:33Z</time>
      </trkpt>
      <trkpt lat="44.44784" lon="5.68586">
        <ele>896.09</ele>
        <time>2014-10-23T09:12:45Z</time>
      </trkpt>
      <trkpt lat="44.44785" lon="5.68585">
        <ele>896.09</ele>
        <time>2014-10-23T09:12:47Z</time>
      </trkpt>
      <trkpt lat="44.44794" lon="5.68572">
        <ele>896.57</ele>
        <time>2014-10-23T09:13:03Z</time>
      </trkpt>
      <trkpt lat="44.44799" lon="5.68561">
        <ele>896.57</ele>
        <time>2014-10-23T09:13:14Z</time>
      </trkpt>
      <trkpt lat="44.44804" lon="5.68556">
        <ele>896.57</ele>
        <time>2014-10-23T09:13:25Z</time>
      </trkpt>
      <trkpt lat="44.44811" lon="5.68562">
        <ele>897.05</ele>
        <time>2014-10-23T09:13:38Z</time>
      </trkpt>
      <trkpt lat="44.44818" lon="5.68559">
        <ele>896.57</ele>
        <time>2014-10-23T09:13:59Z</time>
      </trkpt>
      <trkpt lat="44.44812" lon="5.6856">
        <ele>897.05</ele>
        <time>2014-10-23T09:14:14Z</time>
      </trkpt>
      <trkpt lat="44.44813" lon="5.68559">
        <ele>896.57</ele>
        <time>2014-10-23T09:14:34Z</time>
      </trkpt>
      <trkpt lat="44.44811" lon="5.68564">
        <ele>897.05</ele>
        <time>2014-10-23T09:14:54Z</time>
      </trkpt>
      <trkpt lat="44.44812" lon="5.68561">
        <ele>897.05</ele>
        <time>2014-10-23T09:15:14Z</time>
      </trkpt>
      <trkpt lat="44.44816" lon="5.68561">
        <ele>896.57</ele>
        <time>2014-10-23T09:15:37Z</time>
      </trkpt>
      <trkpt lat="44.44819" lon="5.68561">
        <ele>897.05</ele>
        <time>2014-10-23T09:16:05Z</time>
      </trkpt>
      <trkpt lat="44.44818" lon="5.68562">
        <ele>898.01</ele>
        <time>2014-10-23T09:16:15Z</time>
      </trkpt>
      <trkpt lat="44.44814" lon="5.68565">
        <ele>898.97</ele>
        <time>2014-10-23T09:16:40Z</time>
      </trkpt>
      <trkpt lat="44.44817" lon="5.68568">
        <ele>899.93</ele>
        <time>2014-10-23T09:17:11Z</time>
      </trkpt>
      <trkpt lat="44.4482" lon="5.68569">
        <ele>898.97</ele>
        <time>2014-10-23T09:17:34Z</time>
      </trkpt>
      <trkpt lat="44.44814" lon="5.68562">
        <ele>898.97</ele>
        <time>2014-10-23T09:18:00Z</time>
      </trkpt>
      <trkpt lat="44.4481" lon="5.68565">
        <ele>898.01</ele>
        <time>2014-10-23T09:18:24Z</time>
      </trkpt>
      <trkpt lat="44.44811" lon="5.68567">
        <ele>896.09</ele>
        <time>2014-10-23T09:18:46Z</time>
      </trkpt>
      <trkpt lat="44.44812" lon="5.68564">
        <ele>898.49</ele>
        <time>2014-10-23T09:19:08Z</time>
      </trkpt>
      <trkpt lat="44.44804" lon="5.68563">
        <ele>898.97</ele>
        <time>2014-10-23T09:19:21Z</time>
      </trkpt>
      <trkpt lat="44.44803" lon="5.68564">
        <ele>898.49</ele>
        <time>2014-10-23T09:20:04Z</time>
      </trkpt>
      <trkpt lat="44.44812" lon="5.68566">
        <ele>898.01</ele>
        <time>2014-10-23T09:20:21Z</time>
      </trkpt>
      <trkpt lat="44.44821" lon="5.68564">
        <ele>898.01</ele>
        <time>2014-10-23T09:20:36Z</time>
      </trkpt>
      <trkpt lat="44.44823" lon="5.68552">
        <ele>898.97</ele>
        <time>2014-10-23T09:20:50Z</time>
      </trkpt>
      <trkpt lat="44.44824" lon="5.6854">
        <ele>899.45</ele>
        <time>2014-10-23T09:21:02Z</time>
      </trkpt>
      <trkpt lat="44.44828" lon="5.68529">
        <ele>900.41</ele>
        <time>2014-10-23T09:21:17Z</time>
      </trkpt>
      <trkpt lat="44.44835" lon="5.68515">
        <ele>901.37</ele>
        <time>2014-10-23T09:21:33Z</time>
      </trkpt>
      <trkpt lat="44.44842" lon="5.68504">
        <ele>902.33</ele>
        <time>2014-10-23T09:21:46Z</time>
      </trkpt>
      <trkpt lat="44.44852" lon="5.68494">
        <ele>902.82</ele>
        <time>2014-10-23T09:22:02Z</time>
      </trkpt>
      <trkpt lat="44.4486" lon="5.68484">
        <ele>903.3</ele>
        <time>2014-10-23T09:22:15Z</time>
      </trkpt>
      <trkpt lat="44.44865" lon="5.68473">
        <ele>904.26</ele>
        <time>2014-10-23T09:22:26Z</time>
      </trkpt>
      <trkpt lat="44.44869" lon="5.68461">
        <ele>905.22</ele>
        <time>2014-10-23T09:22:41Z</time>
      </trkpt>
      <trkpt lat="44.44873" lon="5.68448">
        <ele>907.14</ele>
        <time>2014-10-23T09:22:55Z</time>
      </trkpt>
      <trkpt lat="44.44875" lon="5.68442">
        <ele>906.66</ele>
        <time>2014-10-23T09:23:01Z</time>
      </trkpt>
      <trkpt lat="44.44882" lon="5.68429">
        <ele>907.14</ele>
        <time>2014-10-23T09:23:18Z</time>
      </trkpt>
      <trkpt lat="44.44882" lon="5.68427">
        <ele>906.18</ele>
        <time>2014-10-23T09:23:20Z</time>
      </trkpt>
      <trkpt lat="44.44887" lon="5.68409">
        <ele>908.58</ele>
        <time>2014-10-23T09:23:35Z</time>
      </trkpt>
      <trkpt lat="44.4489" lon="5.68397">
        <ele>910.99</ele>
        <time>2014-10-23T09:23:50Z</time>
      </trkpt>
      <trkpt lat="44.4489" lon="5.68383">
        <ele>912.43</ele>
        <time>2014-10-23T09:24:05Z</time>
      </trkpt>
      <trkpt lat="44.44889" lon="5.68374">
        <ele>913.39</ele>
        <time>2014-10-23T09:24:18Z</time>
      </trkpt>
      <trkpt lat="44.44886" lon="5.68367">
        <ele>913.87</ele>
        <time>2014-10-23T09:24:31Z</time>
      </trkpt>
      <trkpt lat="44.44878" lon="5.68364">
        <ele>914.35</ele>
        <time>2014-10-23T09:24:46Z</time>
      </trkpt>
      <trkpt lat="44.44866" lon="5.68366">
        <ele>916.75</ele>
        <time>2014-10-23T09:25:05Z</time>
      </trkpt>
      <trkpt lat="44.4486" lon="5.68366">
        <ele>918.2</ele>
        <time>2014-10-23T09:25:20Z</time>
      </trkpt>
      <trkpt lat="44.44854" lon="5.68369">
        <ele>920.6</ele>
        <time>2014-10-23T09:25:34Z</time>
      </trkpt>
      <trkpt lat="44.4485" lon="5.68378">
        <ele>923.48</ele>
        <time>2014-10-23T09:25:49Z</time>
      </trkpt>
      <trkpt lat="44.44845" lon="5.68386">
        <ele>926.37</ele>
        <time>2014-10-23T09:26:03Z</time>
      </trkpt>
      <trkpt lat="44.4484" lon="5.68395">
        <ele>929.25</ele>
        <time>2014-10-23T09:26:19Z</time>
      </trkpt>
      <trkpt lat="44.44835" lon="5.68406">
        <ele>930.69</ele>
        <time>2014-10-23T09:26:34Z</time>
      </trkpt>
      <trkpt lat="44.44829" lon="5.68414">
        <ele>932.14</ele>
        <time>2014-10-23T09:26:48Z</time>
      </trkpt>
      <trkpt lat="44.44821" lon="5.6842">
        <ele>934.06</ele>
        <time>2014-10-23T09:27:04Z</time>
      </trkpt>
      <trkpt lat="44.44812" lon="5.68419">
        <ele>934.54</ele>
        <time>2014-10-23T09:27:20Z</time>
      </trkpt>
      <trkpt lat="44.44808" lon="5.68415">
        <ele>934.06</ele>
        <time>2014-10-23T09:27:38Z</time>
      </trkpt>
      <trkpt lat="44.44803" lon="5.6841">
        <ele>934.54</ele>
        <time>2014-10-23T09:27:52Z</time>
      </trkpt>
      <trkpt lat="44.44803" lon="5.68409">
        <ele>934.06</ele>
        <time>2014-10-23T09:28:12Z</time>
      </trkpt>
      <trkpt lat="44.44802" lon="5.68406">
        <ele>933.58</ele>
        <time>2014-10-23T09:28:33Z</time>
      </trkpt>
      <trkpt lat="44.44802" lon="5.68406">
        <ele>933.58</ele>
        <time>2014-10-23T09:28:52Z</time>
      </trkpt>
      <trkpt lat="44.44801" lon="5.68407">
        <ele>934.06</ele>
        <time>2014-10-23T09:29:20Z</time>
      </trkpt>
      <trkpt lat="44.44806" lon="5.68408">
        <ele>935.5</ele>
        <time>2014-10-23T09:29:42Z</time>
      </trkpt>
      <trkpt lat="44.44798" lon="5.6841">
        <ele>935.98</ele>
        <time>2014-10-23T09:30:01Z</time>
      </trkpt>
      <trkpt lat="44.44793" lon="5.684">
        <ele>935.98</ele>
        <time>2014-10-23T09:30:17Z</time>
      </trkpt>
      <trkpt lat="44.44785" lon="5.68387">
        <ele>935.98</ele>
        <time>2014-10-23T09:30:34Z</time>
      </trkpt>
      <trkpt lat="44.44783" lon="5.68385">
        <ele>937.42</ele>
        <time>2014-10-23T09:30:37Z</time>
      </trkpt>
      <trkpt lat="44.44774" lon="5.6838">
        <ele>938.38</ele>
        <time>2014-10-23T09:30:54Z</time>
      </trkpt>
      <trkpt lat="44.44768" lon="5.68375">
        <ele>940.79</ele>
        <time>2014-10-23T09:31:08Z</time>
      </trkpt>
      <trkpt lat="44.44764" lon="5.68365">
        <ele>940.79</ele>
        <time>2014-10-23T09:31:22Z</time>
      </trkpt>
      <trkpt lat="44.44763" lon="5.68362">
        <ele>942.71</ele>
        <time>2014-10-23T09:31:25Z</time>
      </trkpt>
      <trkpt lat="44.4476" lon="5.68352">
        <ele>943.19</ele>
        <time>2014-10-23T09:31:39Z</time>
      </trkpt>
      <trkpt lat="44.44757" lon="5.68344">
        <ele>945.11</ele>
        <time>2014-10-23T09:31:52Z</time>
      </trkpt>
      <trkpt lat="44.4475" lon="5.68346">
        <ele>947.04</ele>
        <time>2014-10-23T09:32:09Z</time>
      </trkpt>
      <trkpt lat="44.44741" lon="5.68357">
        <ele>948</ele>
        <time>2014-10-23T09:32:26Z</time>
      </trkpt>
      <trkpt lat="44.44741" lon="5.68367">
        <ele>949.92</ele>
        <time>2014-10-23T09:32:40Z</time>
      </trkpt>
      <trkpt lat="44.44737" lon="5.68378">
        <ele>951.36</ele>
        <time>2014-10-23T09:32:52Z</time>
      </trkpt>
      <trkpt lat="44.44734" lon="5.68387">
        <ele>952.32</ele>
        <time>2014-10-23T09:33:06Z</time>
      </trkpt>
      <trkpt lat="44.44731" lon="5.68392">
        <ele>953.28</ele>
        <time>2014-10-23T09:33:18Z</time>
      </trkpt>
      <trkpt lat="44.44725" lon="5.68404">
        <ele>953.77</ele>
        <time>2014-10-23T09:33:37Z</time>
      </trkpt>
      <trkpt lat="44.44722" lon="5.68411">
        <ele>954.73</ele>
        <time>2014-10-23T09:33:50Z</time>
      </trkpt>
      <trkpt lat="44.44719" lon="5.68415">
        <ele>956.17</ele>
        <time>2014-10-23T09:33:58Z</time>
      </trkpt>
      <trkpt lat="44.44715" lon="5.68422">
        <ele>958.09</ele>
        <time>2014-10-23T09:34:13Z</time>
      </trkpt>
      <trkpt lat="44.44706" lon="5.68429">
        <ele>960.49</ele>
        <time>2014-10-23T09:34:30Z</time>
      </trkpt>
      <trkpt lat="44.44698" lon="5.68432">
        <ele>963.86</ele>
        <time>2014-10-23T09:34:45Z</time>
      </trkpt>
      <trkpt lat="44.44694" lon="5.68438">
        <ele>965.3</ele>
        <time>2014-10-23T09:35:02Z</time>
      </trkpt>
      <trkpt lat="44.44688" lon="5.68443">
        <ele>968.18</ele>
        <time>2014-10-23T09:35:19Z</time>
      </trkpt>
      <trkpt lat="44.44685" lon="5.68443">
        <ele>970.11</ele>
        <time>2014-10-23T09:35:35Z</time>
      </trkpt>
      <trkpt lat="44.44677" lon="5.68447">
        <ele>972.99</ele>
        <time>2014-10-23T09:35:55Z</time>
      </trkpt>
      <trkpt lat="44.44673" lon="5.68448">
        <ele>974.43</ele>
        <time>2014-10-23T09:36:15Z</time>
      </trkpt>
      <trkpt lat="44.44666" lon="5.68448">
        <ele>975.39</ele>
        <time>2014-10-23T09:36:36Z</time>
      </trkpt>
      <trkpt lat="44.44657" lon="5.68443">
        <ele>977.8</ele>
        <time>2014-10-23T09:36:56Z</time>
      </trkpt>
      <trkpt lat="44.44647" lon="5.6844">
        <ele>979.72</ele>
        <time>2014-10-23T09:37:12Z</time>
      </trkpt>
      <trkpt lat="44.44642" lon="5.6844">
        <ele>981.16</ele>
        <time>2014-10-23T09:37:27Z</time>
      </trkpt>
      <trkpt lat="44.44639" lon="5.68439">
        <ele>981.64</ele>
        <time>2014-10-23T09:37:42Z</time>
      </trkpt>
      <trkpt lat="44.44635" lon="5.6844">
        <ele>983.57</ele>
        <time>2014-10-23T09:37:56Z</time>
      </trkpt>
      <trkpt lat="44.4463" lon="5.68441">
        <ele>983.57</ele>
        <time>2014-10-23T09:38:23Z</time>
      </trkpt>
      <trkpt lat="44.44633" lon="5.68445">
        <ele>984.05</ele>
        <time>2014-10-23T09:38:34Z</time>
      </trkpt>
      <trkpt lat="44.44627" lon="5.68441">
        <ele>984.53</ele>
        <time>2014-10-23T09:38:58Z</time>
      </trkpt>
      <trkpt lat="44.44626" lon="5.68441">
        <ele>985.01</ele>
        <time>2014-10-23T09:38:59Z</time>
      </trkpt>
      <trkpt lat="44.44625" lon="5.68437">
        <ele>985.49</ele>
        <time>2014-10-23T09:39:13Z</time>
      </trkpt>
      <trkpt lat="44.44621" lon="5.68438">
        <ele>987.41</ele>
        <time>2014-10-23T09:39:32Z</time>
      </trkpt>
      <trkpt lat="44.44616" lon="5.68434">
        <ele>989.81</ele>
        <time>2014-10-23T09:39:50Z</time>
      </trkpt>
      <trkpt lat="44.44612" lon="5.68428">
        <ele>991.74</ele>
        <time>2014-10-23T09:40:12Z</time>
      </trkpt>
      <trkpt lat="44.44603" lon="5.68425">
        <ele>993.66</ele>
        <time>2014-10-23T09:40:34Z</time>
      </trkpt>
      <trkpt lat="44.44599" lon="5.68424">
        <ele>995.1</ele>
        <time>2014-10-23T09:40:52Z</time>
      </trkpt>
      <trkpt lat="44.44596" lon="5.68424">
        <ele>997.02</ele>
        <time>2014-10-23T09:41:08Z</time>
      </trkpt>
      <trkpt lat="44.44591" lon="5.68421">
        <ele>998.47</ele>
        <time>2014-10-23T09:41:26Z</time>
      </trkpt>
      <trkpt lat="44.44592" lon="5.68419">
        <ele>999.43</ele>
        <time>2014-10-23T09:41:41Z</time>
      </trkpt>
      <trkpt lat="44.44588" lon="5.6842">
        <ele>998.95</ele>
        <time>2014-10-23T09:41:57Z</time>
      </trkpt>
      <trkpt lat="44.44582" lon="5.68415">
        <ele>1001.35</ele>
        <time>2014-10-23T09:42:13Z</time>
      </trkpt>
      <trkpt lat="44.44573" lon="5.68414">
        <ele>1003.75</ele>
        <time>2014-10-23T09:42:30Z</time>
      </trkpt>
      <trkpt lat="44.44571" lon="5.68414">
        <ele>1004.72</ele>
        <time>2014-10-23T09:42:33Z</time>
      </trkpt>
      <trkpt lat="44.44563" lon="5.68413">
        <ele>1006.64</ele>
        <time>2014-10-23T09:42:52Z</time>
      </trkpt>
      <trkpt lat="44.4456" lon="5.68412">
        <ele>1009.52</ele>
        <time>2014-10-23T09:43:06Z</time>
      </trkpt>
      <trkpt lat="44.44555" lon="5.68412">
        <ele>1010.48</ele>
        <time>2014-10-23T09:43:21Z</time>
      </trkpt>
      <trkpt lat="44.44549" lon="5.6841">
        <ele>1010.96</ele>
        <time>2014-10-23T09:43:37Z</time>
      </trkpt>
      <trkpt lat="44.44546" lon="5.68408">
        <ele>1012.41</ele>
        <time>2014-10-23T09:43:57Z</time>
      </trkpt>
      <trkpt lat="44.4454" lon="5.68407">
        <ele>1014.33</ele>
        <time>2014-10-23T09:44:14Z</time>
      </trkpt>
      <trkpt lat="44.44534" lon="5.68404">
        <ele>1015.29</ele>
        <time>2014-10-23T09:44:30Z</time>
      </trkpt>
      <trkpt lat="44.4453" lon="5.68404">
        <ele>1015.77</ele>
        <time>2014-10-23T09:44:52Z</time>
      </trkpt>
      <trkpt lat="44.44525" lon="5.68404">
        <ele>1017.21</ele>
        <time>2014-10-23T09:45:06Z</time>
      </trkpt>
      <trkpt lat="44.44518" lon="5.68402">
        <ele>1020.58</ele>
        <time>2014-10-23T09:45:19Z</time>
      </trkpt>
      <trkpt lat="44.44511" lon="5.68402">
        <ele>1023.46</ele>
        <time>2014-10-23T09:45:38Z</time>
      </trkpt>
      <trkpt lat="44.44503" lon="5.684">
        <ele>1026.34</ele>
        <time>2014-10-23T09:45:56Z</time>
      </trkpt>
      <trkpt lat="44.44495" lon="5.68399">
        <ele>1027.31</ele>
        <time>2014-10-23T09:46:16Z</time>
      </trkpt>
      <trkpt lat="44.44484" lon="5.68403">
        <ele>1028.75</ele>
        <time>2014-10-23T09:46:34Z</time>
      </trkpt>
      <trkpt lat="44.44478" lon="5.68403">
        <ele>1029.23</ele>
        <time>2014-10-23T09:46:51Z</time>
      </trkpt>
      <trkpt lat="44.44478" lon="5.68403">
        <ele>1031.15</ele>
        <time>2014-10-23T09:47:29Z</time>
      </trkpt>
      <trkpt lat="44.44467" lon="5.68403">
        <ele>1032.59</ele>
        <time>2014-10-23T09:47:46Z</time>
      </trkpt>
      <trkpt lat="44.44458" lon="5.68398">
        <ele>1034.52</ele>
        <time>2014-10-23T09:48:04Z</time>
      </trkpt>
      <trkpt lat="44.44453" lon="5.68399">
        <ele>1035.96</ele>
        <time>2014-10-23T09:48:22Z</time>
      </trkpt>
      <trkpt lat="44.44449" lon="5.68392">
        <ele>1037.88</ele>
        <time>2014-10-23T09:48:42Z</time>
      </trkpt>
      <trkpt lat="44.44444" lon="5.68387">
        <ele>1040.28</ele>
        <time>2014-10-23T09:48:59Z</time>
      </trkpt>
      <trkpt lat="44.44445" lon="5.68384">
        <ele>1040.28</ele>
        <time>2014-10-23T09:49:22Z</time>
      </trkpt>
      <trkpt lat="44.44443" lon="5.68379">
        <ele>1041.25</ele>
        <time>2014-10-23T09:49:41Z</time>
      </trkpt>
      <trkpt lat="44.44441" lon="5.68373">
        <ele>1043.65</ele>
        <time>2014-10-23T09:49:56Z</time>
      </trkpt>
      <trkpt lat="44.4444" lon="5.68371">
        <ele>1045.09</ele>
        <time>2014-10-23T09:50:16Z</time>
      </trkpt>
      <trkpt lat="44.44442" lon="5.68374">
        <ele>1045.57</ele>
        <time>2014-10-23T09:50:35Z</time>
      </trkpt>
      <trkpt lat="44.44439" lon="5.68371">
        <ele>1048.45</ele>
        <time>2014-10-23T09:51:01Z</time>
      </trkpt>
      <trkpt lat="44.44433" lon="5.68366">
        <ele>1049.42</ele>
        <time>2014-10-23T09:51:21Z</time>
      </trkpt>
      <trkpt lat="44.4443" lon="5.68363">
        <ele>1050.86</ele>
        <time>2014-10-23T09:51:39Z</time>
      </trkpt>
      <trkpt lat="44.44427" lon="5.68363">
        <ele>1052.78</ele>
        <time>2014-10-23T09:51:56Z</time>
      </trkpt>
      <trkpt lat="44.44421" lon="5.68361">
        <ele>1053.26</ele>
        <time>2014-10-23T09:52:14Z</time>
      </trkpt>
      <trkpt lat="44.44419" lon="5.68358">
        <ele>1056.15</ele>
        <time>2014-10-23T09:52:31Z</time>
      </trkpt>
      <trkpt lat="44.44414" lon="5.68355">
        <ele>1057.59</ele>
        <time>2014-10-23T09:52:50Z</time>
      </trkpt>
      <trkpt lat="44.44412" lon="5.68357">
        <ele>1058.55</ele>
        <time>2014-10-23T09:53:10Z</time>
      </trkpt>
      <trkpt lat="44.44408" lon="5.68354">
        <ele>1058.55</ele>
        <time>2014-10-23T09:53:25Z</time>
      </trkpt>
      <trkpt lat="44.44407" lon="5.68354">
        <ele>1059.99</ele>
        <time>2014-10-23T09:53:33Z</time>
      </trkpt>
      <trkpt lat="44.44405" lon="5.68355">
        <ele>1059.99</ele>
        <time>2014-10-23T09:53:45Z</time>
      </trkpt>
      <trkpt lat="44.44408" lon="5.68355">
        <ele>1061.91</ele>
        <time>2014-10-23T09:54:08Z</time>
      </trkpt>
      <trkpt lat="44.44409" lon="5.68351">
        <ele>1061.43</ele>
        <time>2014-10-23T09:54:26Z</time>
      </trkpt>
      <trkpt lat="44.44409" lon="5.68354">
        <ele>1062.39</ele>
        <time>2014-10-23T09:54:49Z</time>
      </trkpt>
      <trkpt lat="44.44409" lon="5.68354">
        <ele>1062.39</ele>
        <time>2014-10-23T09:54:51Z</time>
      </trkpt>
      <trkpt lat="44.44409" lon="5.68355">
        <ele>1062.39</ele>
        <time>2014-10-23T09:55:00Z</time>
      </trkpt>
      <trkpt lat="44.44408" lon="5.68355">
        <ele>1063.36</ele>
        <time>2014-10-23T09:55:31Z</time>
      </trkpt>
      <trkpt lat="44.4441" lon="5.68356">
        <ele>1063.36</ele>
        <time>2014-10-23T09:55:44Z</time>
      </trkpt>
      <trkpt lat="44.44409" lon="5.68357">
        <ele>1063.84</ele>
        <time>2014-10-23T09:56:03Z</time>
      </trkpt>
      <trkpt lat="44.44409" lon="5.68362">
        <ele>1062.87</ele>
        <time>2014-10-23T09:56:08Z</time>
      </trkpt>
      <trkpt lat="44.44407" lon="5.6836">
        <ele>1062.87</ele>
        <time>2014-10-23T09:56:23Z</time>
      </trkpt>
      <trkpt lat="44.44406" lon="5.68356">
        <ele>1061.43</ele>
        <time>2014-10-23T09:57:06Z</time>
      </trkpt>
      <trkpt lat="44.44409" lon="5.68361">
        <ele>1061.43</ele>
        <time>2014-10-23T09:57:43Z</time>
      </trkpt>
      <trkpt lat="44.44405" lon="5.68353">
        <ele>1062.39</ele>
        <time>2014-10-23T09:58:17Z</time>
      </trkpt>
      <trkpt lat="44.44404" lon="5.68357">
        <ele>1061.43</ele>
        <time>2014-10-23T09:58:49Z</time>
      </trkpt>
      <trkpt lat="44.44405" lon="5.68363">
        <ele>1062.39</ele>
        <time>2014-10-23T09:59:07Z</time>
      </trkpt>
      <trkpt lat="44.44405" lon="5.68366">
        <ele>1062.39</ele>
        <time>2014-10-23T09:59:27Z</time>
      </trkpt>
      <trkpt lat="44.44407" lon="5.68368">
        <ele>1061.43</ele>
        <time>2014-10-23T09:59:46Z</time>
      </trkpt>
      <trkpt lat="44.44405" lon="5.68373">
        <ele>1060.47</ele>
        <time>2014-10-23T09:59:59Z</time>
      </trkpt>
      <trkpt lat="44.44404" lon="5.68376">
        <ele>1059.51</ele>
        <time>2014-10-23T10:00:13Z</time>
      </trkpt>
      <trkpt lat="44.44404" lon="5.68385">
        <ele>1057.11</ele>
        <time>2014-10-23T10:00:25Z</time>
      </trkpt>
      <trkpt lat="44.44401" lon="5.68392">
        <ele>1054.7</ele>
        <time>2014-10-23T10:00:37Z</time>
      </trkpt>
      <trkpt lat="44.44399" lon="5.68398">
        <ele>1053.74</ele>
        <time>2014-10-23T10:00:42Z</time>
      </trkpt>
      <trkpt lat="44.44395" lon="5.68415">
        <ele>1052.78</ele>
        <time>2014-10-23T10:00:56Z</time>
      </trkpt>
      <trkpt lat="44.44395" lon="5.68416">
        <ele>1052.78</ele>
        <time>2014-10-23T10:00:57Z</time>
      </trkpt>
      <trkpt lat="44.44395" lon="5.6843">
        <ele>1052.78</ele>
        <time>2014-10-23T10:01:11Z</time>
      </trkpt>
      <trkpt lat="44.44393" lon="5.6844">
        <ele>1053.74</ele>
        <time>2014-10-23T10:01:23Z</time>
      </trkpt>
      <trkpt lat="44.44393" lon="5.68444">
        <ele>1053.74</ele>
        <time>2014-10-23T10:01:25Z</time>
      </trkpt>
      <trkpt lat="44.44392" lon="5.68454">
        <ele>1053.74</ele>
        <time>2014-10-23T10:01:33Z</time>
      </trkpt>
      <trkpt lat="44.4439" lon="5.68471">
        <ele>1053.26</ele>
        <time>2014-10-23T10:01:47Z</time>
      </trkpt>
      <trkpt lat="44.44392" lon="5.68492">
        <ele>1051.82</ele>
        <time>2014-10-23T10:02:03Z</time>
      </trkpt>
      <trkpt lat="44.44394" lon="5.68496">
        <ele>1052.78</ele>
        <time>2014-10-23T10:02:07Z</time>
      </trkpt>
      <trkpt lat="44.44399" lon="5.68516">
        <ele>1050.86</ele>
        <time>2014-10-23T10:02:23Z</time>
      </trkpt>
      <trkpt lat="44.44399" lon="5.68532">
        <ele>1049.42</ele>
        <time>2014-10-23T10:02:36Z</time>
      </trkpt>
      <trkpt lat="44.44401" lon="5.68545">
        <ele>1048.94</ele>
        <time>2014-10-23T10:02:47Z</time>
      </trkpt>
      <trkpt lat="44.444" lon="5.68561">
        <ele>1049.9</ele>
        <time>2014-10-23T10:03:00Z</time>
      </trkpt>
      <trkpt lat="44.44394" lon="5.68573">
        <ele>1052.3</ele>
        <time>2014-10-23T10:03:15Z</time>
      </trkpt>
      <trkpt lat="44.4439" lon="5.68581">
        <ele>1054.22</ele>
        <time>2014-10-23T10:03:27Z</time>
      </trkpt>
      <trkpt lat="44.44384" lon="5.68591">
        <ele>1054.22</ele>
        <time>2014-10-23T10:03:43Z</time>
      </trkpt>
      <trkpt lat="44.44382" lon="5.686">
        <ele>1056.63</ele>
        <time>2014-10-23T10:03:59Z</time>
      </trkpt>
      <trkpt lat="44.4438" lon="5.68607">
        <ele>1058.07</ele>
        <time>2014-10-23T10:04:14Z</time>
      </trkpt>
      <trkpt lat="44.44378" lon="5.68612">
        <ele>1059.51</ele>
        <time>2014-10-23T10:04:24Z</time>
      </trkpt>
      <trkpt lat="44.44374" lon="5.68619">
        <ele>1062.39</ele>
        <time>2014-10-23T10:04:39Z</time>
      </trkpt>
      <trkpt lat="44.44369" lon="5.68631">
        <ele>1064.32</ele>
        <time>2014-10-23T10:04:54Z</time>
      </trkpt>
      <trkpt lat="44.44366" lon="5.68638">
        <ele>1064.32</ele>
        <time>2014-10-23T10:05:05Z</time>
      </trkpt>
      <trkpt lat="44.44361" lon="5.68647">
        <ele>1065.76</ele>
        <time>2014-10-23T10:05:21Z</time>
      </trkpt>
      <trkpt lat="44.44358" lon="5.68656">
        <ele>1067.68</ele>
        <time>2014-10-23T10:05:35Z</time>
      </trkpt>
      <trkpt lat="44.44352" lon="5.68666">
        <ele>1069.12</ele>
        <time>2014-10-23T10:05:48Z</time>
      </trkpt>
      <trkpt lat="44.44348" lon="5.68671">
        <ele>1070.57</ele>
        <time>2014-10-23T10:06:03Z</time>
      </trkpt>
      <trkpt lat="44.44342" lon="5.6868">
        <ele>1072.01</ele>
        <time>2014-10-23T10:06:16Z</time>
      </trkpt>
      <trkpt lat="44.44338" lon="5.68684">
        <ele>1072.97</ele>
        <time>2014-10-23T10:06:27Z</time>
      </trkpt>
      <trkpt lat="44.44333" lon="5.68691">
        <ele>1075.37</ele>
        <time>2014-10-23T10:06:41Z</time>
      </trkpt>
      <trkpt lat="44.44327" lon="5.68701">
        <ele>1077.29</ele>
        <time>2014-10-23T10:06:56Z</time>
      </trkpt>
      <trkpt lat="44.44322" lon="5.68711">
        <ele>1080.66</ele>
        <time>2014-10-23T10:07:13Z</time>
      </trkpt>
      <trkpt lat="44.44316" lon="5.6872">
        <ele>1082.1</ele>
        <time>2014-10-23T10:07:30Z</time>
      </trkpt>
      <trkpt lat="44.44309" lon="5.6872">
        <ele>1084.02</ele>
        <time>2014-10-23T10:07:46Z</time>
      </trkpt>
      <trkpt lat="44.443" lon="5.68718">
        <ele>1084.02</ele>
        <time>2014-10-23T10:07:58Z</time>
      </trkpt>
      <trkpt lat="44.44288" lon="5.68715">
        <ele>1085.47</ele>
        <time>2014-10-23T10:08:15Z</time>
      </trkpt>
      <trkpt lat="44.44277" lon="5.68704">
        <ele>1087.39</ele>
        <time>2014-10-23T10:08:33Z</time>
      </trkpt>
      <trkpt lat="44.44275" lon="5.68693">
        <ele>1089.31</ele>
        <time>2014-10-23T10:08:48Z</time>
      </trkpt>
      <trkpt lat="44.44273" lon="5.68682">
        <ele>1090.27</ele>
        <time>2014-10-23T10:09:04Z</time>
      </trkpt>
      <trkpt lat="44.44267" lon="5.68671">
        <ele>1092.2</ele>
        <time>2014-10-23T10:09:24Z</time>
      </trkpt>
      <trkpt lat="44.44266" lon="5.68668">
        <ele>1094.6</ele>
        <time>2014-10-23T10:09:32Z</time>
      </trkpt>
      <trkpt lat="44.4426" lon="5.68665">
        <ele>1095.56</ele>
        <time>2014-10-23T10:09:49Z</time>
      </trkpt>
      <trkpt lat="44.44253" lon="5.68663">
        <ele>1096.52</ele>
        <time>2014-10-23T10:10:04Z</time>
      </trkpt>
      <trkpt lat="44.44246" lon="5.68654">
        <ele>1097.48</ele>
        <time>2014-10-23T10:10:19Z</time>
      </trkpt>
      <trkpt lat="44.4424" lon="5.68648">
        <ele>1099.4</ele>
        <time>2014-10-23T10:10:34Z</time>
      </trkpt>
      <trkpt lat="44.44236" lon="5.6865">
        <ele>1100.37</ele>
        <time>2014-10-23T10:10:47Z</time>
      </trkpt>
      <trkpt lat="44.44228" lon="5.68653">
        <ele>1100.85</ele>
        <time>2014-10-23T10:11:02Z</time>
      </trkpt>
      <trkpt lat="44.44225" lon="5.68654">
        <ele>1102.77</ele>
        <time>2014-10-23T10:11:06Z</time>
      </trkpt>
      <trkpt lat="44.44218" lon="5.68656">
        <ele>1103.25</ele>
        <time>2014-10-23T10:11:22Z</time>
      </trkpt>
      <trkpt lat="44.44211" lon="5.68654">
        <ele>1104.21</ele>
        <time>2014-10-23T10:11:36Z</time>
      </trkpt>
      <trkpt lat="44.44205" lon="5.68649">
        <ele>1104.69</ele>
        <time>2014-10-23T10:11:54Z</time>
      </trkpt>
      <trkpt lat="44.44199" lon="5.68645">
        <ele>1107.58</ele>
        <time>2014-10-23T10:12:10Z</time>
      </trkpt>
      <trkpt lat="44.44192" lon="5.68645">
        <ele>1108.54</ele>
        <time>2014-10-23T10:12:26Z</time>
      </trkpt>
      <trkpt lat="44.44194" lon="5.68641">
        <ele>1109.98</ele>
        <time>2014-10-23T10:12:42Z</time>
      </trkpt>
      <trkpt lat="44.44188" lon="5.68645">
        <ele>1112.38</ele>
        <time>2014-10-23T10:12:54Z</time>
      </trkpt>
      <trkpt lat="44.44183" lon="5.68645">
        <ele>1112.86</ele>
        <time>2014-10-23T10:13:09Z</time>
      </trkpt>
      <trkpt lat="44.44179" lon="5.68644">
        <ele>1115.75</ele>
        <time>2014-10-23T10:13:25Z</time>
      </trkpt>
      <trkpt lat="44.44173" lon="5.68642">
        <ele>1118.15</ele>
        <time>2014-10-23T10:13:42Z</time>
      </trkpt>
      <trkpt lat="44.4417" lon="5.68642">
        <ele>1118.63</ele>
        <time>2014-10-23T10:13:56Z</time>
      </trkpt>
      <trkpt lat="44.44164" lon="5.68641">
        <ele>1119.59</ele>
        <time>2014-10-23T10:14:11Z</time>
      </trkpt>
      <trkpt lat="44.44163" lon="5.68643">
        <ele>1120.55</ele>
        <time>2014-10-23T10:14:32Z</time>
      </trkpt>
      <trkpt lat="44.44157" lon="5.6864">
        <ele>1122.96</ele>
        <time>2014-10-23T10:14:46Z</time>
      </trkpt>
      <trkpt lat="44.44152" lon="5.68636">
        <ele>1124.4</ele>
        <time>2014-10-23T10:15:04Z</time>
      </trkpt>
      <trkpt lat="44.44148" lon="5.68631">
        <ele>1125.36</ele>
        <time>2014-10-23T10:15:15Z</time>
      </trkpt>
      <trkpt lat="44.44143" lon="5.6863">
        <ele>1127.76</ele>
        <time>2014-10-23T10:15:28Z</time>
      </trkpt>
      <trkpt lat="44.44135" lon="5.68627">
        <ele>1129.21</ele>
        <time>2014-10-23T10:15:44Z</time>
      </trkpt>
      <trkpt lat="44.44131" lon="5.68622">
        <ele>1130.65</ele>
        <time>2014-10-23T10:16:00Z</time>
      </trkpt>
      <trkpt lat="44.44126" lon="5.6862">
        <ele>1132.09</ele>
        <time>2014-10-23T10:16:19Z</time>
      </trkpt>
      <trkpt lat="44.4412" lon="5.68618">
        <ele>1133.05</ele>
        <time>2014-10-23T10:16:35Z</time>
      </trkpt>
      <trkpt lat="44.44115" lon="5.68613">
        <ele>1134.01</ele>
        <time>2014-10-23T10:16:52Z</time>
      </trkpt>
      <trkpt lat="44.44113" lon="5.6861">
        <ele>1135.45</ele>
        <time>2014-10-23T10:17:11Z</time>
      </trkpt>
      <trkpt lat="44.44107" lon="5.68608">
        <ele>1135.45</ele>
        <time>2014-10-23T10:17:33Z</time>
      </trkpt>
      <trkpt lat="44.44108" lon="5.6861">
        <ele>1136.42</ele>
        <time>2014-10-23T10:17:55Z</time>
      </trkpt>
      <trkpt lat="44.44107" lon="5.68607">
        <ele>1136.9</ele>
        <time>2014-10-23T10:18:29Z</time>
      </trkpt>
      <trkpt lat="44.44103" lon="5.68609">
        <ele>1137.86</ele>
        <time>2014-10-23T10:18:50Z</time>
      </trkpt>
      <trkpt lat="44.44105" lon="5.68611">
        <ele>1137.38</ele>
        <time>2014-10-23T10:19:10Z</time>
      </trkpt>
      <trkpt lat="44.44104" lon="5.68607">
        <ele>1137.38</ele>
        <time>2014-10-23T10:19:38Z</time>
      </trkpt>
      <trkpt lat="44.44108" lon="5.6861">
        <ele>1136.42</ele>
        <time>2014-10-23T10:20:00Z</time>
      </trkpt>
      <trkpt lat="44.44106" lon="5.6861">
        <ele>1135.94</ele>
        <time>2014-10-23T10:20:34Z</time>
      </trkpt>
      <trkpt lat="44.44103" lon="5.6861">
        <ele>1137.38</ele>
        <time>2014-10-23T10:20:59Z</time>
      </trkpt>
      <trkpt lat="44.441" lon="5.68612">
        <ele>1137.38</ele>
        <time>2014-10-23T10:21:14Z</time>
      </trkpt>
      <trkpt lat="44.44097" lon="5.68616">
        <ele>1136.42</ele>
        <time>2014-10-23T10:21:28Z</time>
      </trkpt>
      <trkpt lat="44.44093" lon="5.68621">
        <ele>1134.49</ele>
        <time>2014-10-23T10:21:42Z</time>
      </trkpt>
      <trkpt lat="44.44096" lon="5.6863">
        <ele>1133.53</ele>
        <time>2014-10-23T10:22:00Z</time>
      </trkpt>
      <trkpt lat="44.44096" lon="5.68636">
        <ele>1131.13</ele>
        <time>2014-10-23T10:22:16Z</time>
      </trkpt>
      <trkpt lat="44.44092" lon="5.68641">
        <ele>1129.21</ele>
        <time>2014-10-23T10:22:33Z</time>
      </trkpt>
      <trkpt lat="44.44083" lon="5.68649">
        <ele>1127.76</ele>
        <time>2014-10-23T10:22:53Z</time>
      </trkpt>
      <trkpt lat="44.44074" lon="5.68656">
        <ele>1126.8</ele>
        <time>2014-10-23T10:23:08Z</time>
      </trkpt>
      <trkpt lat="44.44067" lon="5.68666">
        <ele>1125.36</ele>
        <time>2014-10-23T10:23:22Z</time>
      </trkpt>
      <trkpt lat="44.44063" lon="5.68671">
        <ele>1124.88</ele>
        <time>2014-10-23T10:23:36Z</time>
      </trkpt>
      <trkpt lat="44.44058" lon="5.68678">
        <ele>1123.44</ele>
        <time>2014-10-23T10:23:49Z</time>
      </trkpt>
      <trkpt lat="44.44055" lon="5.68682">
        <ele>1122.48</ele>
        <time>2014-10-23T10:23:55Z</time>
      </trkpt>
      <trkpt lat="44.44054" lon="5.68695">
        <ele>1120.07</ele>
        <time>2014-10-23T10:24:10Z</time>
      </trkpt>
      <trkpt lat="44.44048" lon="5.68702">
        <ele>1116.71</ele>
        <time>2014-10-23T10:24:23Z</time>
      </trkpt>
      <trkpt lat="44.44042" lon="5.68711">
        <ele>1114.79</ele>
        <time>2014-10-23T10:24:35Z</time>
      </trkpt>
      <trkpt lat="44.44039" lon="5.68723">
        <ele>1112.38</ele>
        <time>2014-10-23T10:24:46Z</time>
      </trkpt>
      <trkpt lat="44.44032" lon="5.68731">
        <ele>1109.98</ele>
        <time>2014-10-23T10:25:01Z</time>
      </trkpt>
      <trkpt lat="44.44028" lon="5.68739">
        <ele>1107.1</ele>
        <time>2014-10-23T10:25:15Z</time>
      </trkpt>
      <trkpt lat="44.44019" lon="5.68744">
        <ele>1105.17</ele>
        <time>2014-10-23T10:25:30Z</time>
      </trkpt>
      <trkpt lat="44.44015" lon="5.68761">
        <ele>1102.29</ele>
        <time>2014-10-23T10:25:45Z</time>
      </trkpt>
      <trkpt lat="44.44005" lon="5.68771">
        <ele>1099.89</ele>
        <time>2014-10-23T10:26:00Z</time>
      </trkpt>
      <trkpt lat="44.44001" lon="5.6878">
        <ele>1098.92</ele>
        <time>2014-10-23T10:26:08Z</time>
      </trkpt>
      <trkpt lat="44.43994" lon="5.68792">
        <ele>1096.52</ele>
        <time>2014-10-23T10:26:22Z</time>
      </trkpt>
      <trkpt lat="44.43989" lon="5.688">
        <ele>1094.12</ele>
        <time>2014-10-23T10:26:35Z</time>
      </trkpt>
      <trkpt lat="44.43984" lon="5.68811">
        <ele>1091.71</ele>
        <time>2014-10-23T10:26:47Z</time>
      </trkpt>
      <trkpt lat="44.43982" lon="5.68822">
        <ele>1090.27</ele>
        <time>2014-10-23T10:26:58Z</time>
      </trkpt>
      <trkpt lat="44.43975" lon="5.68832">
        <ele>1087.39</ele>
        <time>2014-10-23T10:27:12Z</time>
      </trkpt>
      <trkpt lat="44.43971" lon="5.68838">
        <ele>1086.43</ele>
        <time>2014-10-23T10:27:20Z</time>
      </trkpt>
      <trkpt lat="44.43965" lon="5.68848">
        <ele>1085.47</ele>
        <time>2014-10-23T10:27:30Z</time>
      </trkpt>
      <trkpt lat="44.4396" lon="5.6886">
        <ele>1083.06</ele>
        <time>2014-10-23T10:27:44Z</time>
      </trkpt>
      <trkpt lat="44.43957" lon="5.68875">
        <ele>1080.66</ele>
        <time>2014-10-23T10:27:57Z</time>
      </trkpt>
      <trkpt lat="44.4395" lon="5.68892">
        <ele>1079.22</ele>
        <time>2014-10-23T10:28:12Z</time>
      </trkpt>
      <trkpt lat="44.43942" lon="5.68906">
        <ele>1079.22</ele>
        <time>2014-10-23T10:28:25Z</time>
      </trkpt>
      <trkpt lat="44.43936" lon="5.68915">
        <ele>1078.26</ele>
        <time>2014-10-23T10:28:36Z</time>
      </trkpt>
      <trkpt lat="44.43934" lon="5.68932">
        <ele>1077.78</ele>
        <time>2014-10-23T10:28:49Z</time>
      </trkpt>
      <trkpt lat="44.43929" lon="5.68932">
        <ele>1078.26</ele>
        <time>2014-10-23T10:29:01Z</time>
      </trkpt>
      <trkpt lat="44.4393" lon="5.68931">
        <ele>1076.81</ele>
        <time>2014-10-23T10:29:13Z</time>
      </trkpt>
      <trkpt lat="44.4393" lon="5.68933">
        <ele>1077.78</ele>
        <time>2014-10-23T10:29:29Z</time>
      </trkpt>
      <trkpt lat="44.43929" lon="5.68934">
        <ele>1077.29</ele>
        <time>2014-10-23T10:29:42Z</time>
      </trkpt>
      <trkpt lat="44.4393" lon="5.68935">
        <ele>1078.74</ele>
        <time>2014-10-23T10:29:59Z</time>
      </trkpt>
      <trkpt lat="44.43929" lon="5.68934">
        <ele>1077.78</ele>
        <time>2014-10-23T10:30:12Z</time>
      </trkpt>
      <trkpt lat="44.43927" lon="5.68938">
        <ele>1078.26</ele>
        <time>2014-10-23T10:30:23Z</time>
      </trkpt>
      <trkpt lat="44.43926" lon="5.68939">
        <ele>1078.26</ele>
        <time>2014-10-23T10:30:34Z</time>
      </trkpt>
      <trkpt lat="44.43928" lon="5.68937">
        <ele>1078.26</ele>
        <time>2014-10-23T10:30:46Z</time>
      </trkpt>
      <trkpt lat="44.43931" lon="5.6894">
        <ele>1076.81</ele>
        <time>2014-10-23T10:31:00Z</time>
      </trkpt>
      <trkpt lat="44.43932" lon="5.68946">
        <ele>1077.78</ele>
        <time>2014-10-23T10:31:14Z</time>
      </trkpt>
      <trkpt lat="44.4393" lon="5.68944">
        <ele>1078.26</ele>
        <time>2014-10-23T10:31:26Z</time>
      </trkpt>
      <trkpt lat="44.4393" lon="5.68949">
        <ele>1077.78</ele>
        <time>2014-10-23T10:31:43Z</time>
      </trkpt>
      <trkpt lat="44.4393" lon="5.68948">
        <ele>1078.26</ele>
        <time>2014-10-23T10:31:48Z</time>
      </trkpt>
      <trkpt lat="44.43931" lon="5.68943">
        <ele>1078.26</ele>
        <time>2014-10-23T10:32:00Z</time>
      </trkpt>
      <trkpt lat="44.4393" lon="5.68943">
        <ele>1077.29</ele>
        <time>2014-10-23T10:32:27Z</time>
      </trkpt>
      <trkpt lat="44.43927" lon="5.68942">
        <ele>1078.26</ele>
        <time>2014-10-23T10:33:00Z</time>
      </trkpt>
      <trkpt lat="44.43929" lon="5.68942">
        <ele>1077.78</ele>
        <time>2014-10-23T10:33:30Z</time>
      </trkpt>
      <trkpt lat="44.43929" lon="5.68942">
        <ele>1077.78</ele>
        <time>2014-10-23T10:33:43Z</time>
      </trkpt>
      <trkpt lat="44.4393" lon="5.68942">
        <ele>1078.74</ele>
        <time>2014-10-23T10:34:18Z</time>
      </trkpt>
      <trkpt lat="44.43929" lon="5.68939">
        <ele>1078.26</ele>
        <time>2014-10-23T10:34:45Z</time>
      </trkpt>
      <trkpt lat="44.4393" lon="5.6894">
        <ele>1078.26</ele>
        <time>2014-10-23T10:35:11Z</time>
      </trkpt>
      <trkpt lat="44.43926" lon="5.6894">
        <ele>1077.78</ele>
        <time>2014-10-23T10:35:46Z</time>
      </trkpt>
      <trkpt lat="44.43927" lon="5.68939">
        <ele>1077.78</ele>
        <time>2014-10-23T10:36:21Z</time>
      </trkpt>
      <trkpt lat="44.4393" lon="5.68935">
        <ele>1078.74</ele>
        <time>2014-10-23T10:36:59Z</time>
      </trkpt>
      <trkpt lat="44.43931" lon="5.68937">
        <ele>1077.78</ele>
        <time>2014-10-23T10:37:23Z</time>
      </trkpt>
      <trkpt lat="44.4393" lon="5.68938">
        <ele>1078.74</ele>
        <time>2014-10-23T10:37:51Z</time>
      </trkpt>
      <trkpt lat="44.43932" lon="5.68937">
        <ele>1078.26</ele>
        <time>2014-10-23T10:38:20Z</time>
      </trkpt>
      <trkpt lat="44.43932" lon="5.68936">
        <ele>1077.78</ele>
        <time>2014-10-23T10:38:49Z</time>
      </trkpt>
      <trkpt lat="44.43929" lon="5.68937">
        <ele>1078.26</ele>
        <time>2014-10-23T10:39:25Z</time>
      </trkpt>
      <trkpt lat="44.43929" lon="5.68937">
        <ele>1077.78</ele>
        <time>2014-10-23T10:40:00Z</time>
      </trkpt>
      <trkpt lat="44.43928" lon="5.68937">
        <ele>1076.81</ele>
        <time>2014-10-23T10:40:31Z</time>
      </trkpt>
      <trkpt lat="44.43929" lon="5.68937">
        <ele>1076.81</ele>
        <time>2014-10-23T10:41:03Z</time>
      </trkpt>
      <trkpt lat="44.43929" lon="5.68937">
        <ele>1075.85</ele>
        <time>2014-10-23T10:41:39Z</time>
      </trkpt>
      <trkpt lat="44.43931" lon="5.68938">
        <ele>1075.85</ele>
        <time>2014-10-23T10:42:13Z</time>
      </trkpt>
      <trkpt lat="44.43931" lon="5.6894">
        <ele>1076.81</ele>
        <time>2014-10-23T10:42:54Z</time>
      </trkpt>
      <trkpt lat="44.43929" lon="5.68938">
        <ele>1077.29</ele>
        <time>2014-10-23T10:43:36Z</time>
      </trkpt>
      <trkpt lat="44.43928" lon="5.68936">
        <ele>1076.81</ele>
        <time>2014-10-23T10:44:04Z</time>
      </trkpt>
      <trkpt lat="44.43929" lon="5.68937">
        <ele>1077.29</ele>
        <time>2014-10-23T10:44:32Z</time>
      </trkpt>
      <trkpt lat="44.4393" lon="5.68938">
        <ele>1077.29</ele>
        <time>2014-10-23T10:45:10Z</time>
      </trkpt>
      <trkpt lat="44.43931" lon="5.68937">
        <ele>1075.37</ele>
        <time>2014-10-23T10:45:51Z</time>
      </trkpt>
      <trkpt lat="44.4393" lon="5.68939">
        <ele>1076.33</ele>
        <time>2014-10-23T10:46:28Z</time>
      </trkpt>
      <trkpt lat="44.43928" lon="5.68941">
        <ele>1076.33</ele>
        <time>2014-10-23T10:47:04Z</time>
      </trkpt>
      <trkpt lat="44.4393" lon="5.68939">
        <ele>1076.81</ele>
        <time>2014-10-23T10:47:37Z</time>
      </trkpt>
      <trkpt lat="44.43931" lon="5.68939">
        <ele>1076.33</ele>
        <time>2014-10-23T10:48:07Z</time>
      </trkpt>
      <trkpt lat="44.43928" lon="5.6894">
        <ele>1075.85</ele>
        <time>2014-10-23T10:48:33Z</time>
      </trkpt>
      <trkpt lat="44.43928" lon="5.68941">
        <ele>1076.33</ele>
        <time>2014-10-23T10:48:38Z</time>
      </trkpt>
      <trkpt lat="44.43928" lon="5.6894">
        <ele>1075.37</ele>
        <time>2014-10-23T10:49:03Z</time>
      </trkpt>
      <trkpt lat="44.43931" lon="5.68937">
        <ele>1076.33</ele>
        <time>2014-10-23T10:49:30Z</time>
      </trkpt>
      <trkpt lat="44.43931" lon="5.68936">
        <ele>1075.85</ele>
        <time>2014-10-23T10:50:01Z</time>
      </trkpt>
      <trkpt lat="44.43931" lon="5.68937">
        <ele>1075.85</ele>
        <time>2014-10-23T10:50:28Z</time>
      </trkpt>
      <trkpt lat="44.43931" lon="5.68938">
        <ele>1076.81</ele>
        <time>2014-10-23T10:50:51Z</time>
      </trkpt>
      <trkpt lat="44.43932" lon="5.68938">
        <ele>1075.85</ele>
        <time>2014-10-23T10:51:15Z</time>
      </trkpt>
      <trkpt lat="44.43933" lon="5.68943">
        <ele>1074.89</ele>
        <time>2014-10-23T10:51:44Z</time>
      </trkpt>
      <trkpt lat="44.43933" lon="5.68942">
        <ele>1076.81</ele>
        <time>2014-10-23T10:51:57Z</time>
      </trkpt>
      <trkpt lat="44.4393" lon="5.6894">
        <ele>1075.85</ele>
        <time>2014-10-23T10:52:27Z</time>
      </trkpt>
      <trkpt lat="44.43929" lon="5.68942">
        <ele>1075.85</ele>
        <time>2014-10-23T10:52:54Z</time>
      </trkpt>
      <trkpt lat="44.4393" lon="5.68942">
        <ele>1075.85</ele>
        <time>2014-10-23T10:53:23Z</time>
      </trkpt>
      <trkpt lat="44.43932" lon="5.68941">
        <ele>1075.37</ele>
        <time>2014-10-23T10:53:56Z</time>
      </trkpt>
      <trkpt lat="44.43932" lon="5.6894">
        <ele>1076.81</ele>
        <time>2014-10-23T10:54:29Z</time>
      </trkpt>
      <trkpt lat="44.43931" lon="5.68939">
        <ele>1076.81</ele>
        <time>2014-10-23T10:55:10Z</time>
      </trkpt>
      <trkpt lat="44.43929" lon="5.68938">
        <ele>1076.33</ele>
        <time>2014-10-23T10:55:47Z</time>
      </trkpt>
      <trkpt lat="44.43931" lon="5.68939">
        <ele>1075.37</ele>
        <time>2014-10-23T10:56:29Z</time>
      </trkpt>
      <trkpt lat="44.43931" lon="5.68939">
        <ele>1076.33</ele>
        <time>2014-10-23T10:56:31Z</time>
      </trkpt>
      <trkpt lat="44.4393" lon="5.68939">
        <ele>1078.74</ele>
        <time>2014-10-23T10:57:05Z</time>
      </trkpt>
      <trkpt lat="44.43929" lon="5.6894">
        <ele>1078.26</ele>
        <time>2014-10-23T10:57:33Z</time>
      </trkpt>
      <trkpt lat="44.43928" lon="5.68938">
        <ele>1076.33</ele>
        <time>2014-10-23T10:58:13Z</time>
      </trkpt>
      <trkpt lat="44.43929" lon="5.68937">
        <ele>1075.37</ele>
        <time>2014-10-23T10:58:43Z</time>
      </trkpt>
      <trkpt lat="44.4393" lon="5.6894">
        <ele>1074.41</ele>
        <time>2014-10-23T10:59:21Z</time>
      </trkpt>
      <trkpt lat="44.4393" lon="5.6894">
        <ele>1074.89</ele>
        <time>2014-10-23T10:59:45Z</time>
      </trkpt>
      <trkpt lat="44.4393" lon="5.6894">
        <ele>1074.41</ele>
        <time>2014-10-23T11:00:08Z</time>
      </trkpt>
      <trkpt lat="44.43931" lon="5.68941">
        <ele>1075.85</ele>
        <time>2014-10-23T11:00:42Z</time>
      </trkpt>
      <trkpt lat="44.43932" lon="5.68941">
        <ele>1075.37</ele>
        <time>2014-10-23T11:01:16Z</time>
      </trkpt>
      <trkpt lat="44.43932" lon="5.68942">
        <ele>1076.33</ele>
        <time>2014-10-23T11:01:49Z</time>
      </trkpt>
      <trkpt lat="44.43932" lon="5.68942">
        <ele>1076.33</ele>
        <time>2014-10-23T11:02:20Z</time>
      </trkpt>
      <trkpt lat="44.43931" lon="5.68942">
        <ele>1076.81</ele>
        <time>2014-10-23T11:02:48Z</time>
      </trkpt>
      <trkpt lat="44.43932" lon="5.6894">
        <ele>1076.81</ele>
        <time>2014-10-23T11:03:16Z</time>
      </trkpt>
      <trkpt lat="44.43932" lon="5.6894">
        <ele>1076.81</ele>
        <time>2014-10-23T11:03:49Z</time>
      </trkpt>
      <trkpt lat="44.43931" lon="5.68943">
        <ele>1076.33</ele>
        <time>2014-10-23T11:04:23Z</time>
      </trkpt>
      <trkpt lat="44.43931" lon="5.68943">
        <ele>1076.33</ele>
        <time>2014-10-23T11:04:52Z</time>
      </trkpt>
      <trkpt lat="44.4393" lon="5.68942">
        <ele>1077.29</ele>
        <time>2014-10-23T11:05:12Z</time>
      </trkpt>
      <trkpt lat="44.4393" lon="5.68942">
        <ele>1076.81</ele>
        <time>2014-10-23T11:05:46Z</time>
      </trkpt>
      <trkpt lat="44.43929" lon="5.6894">
        <ele>1076.33</ele>
        <time>2014-10-23T11:06:21Z</time>
      </trkpt>
      <trkpt lat="44.4393" lon="5.68944">
        <ele>1075.85</ele>
        <time>2014-10-23T11:06:56Z</time>
      </trkpt>
      <trkpt lat="44.43928" lon="5.68943">
        <ele>1076.81</ele>
        <time>2014-10-23T11:07:22Z</time>
      </trkpt>
      <trkpt lat="44.43928" lon="5.68939">
        <ele>1076.81</ele>
        <time>2014-10-23T11:07:50Z</time>
      </trkpt>
      <trkpt lat="44.4393" lon="5.68939">
        <ele>1076.81</ele>
        <time>2014-10-23T11:08:29Z</time>
      </trkpt>
      <trkpt lat="44.43931" lon="5.68939">
        <ele>1077.29</ele>
        <time>2014-10-23T11:09:06Z</time>
      </trkpt>
      <trkpt lat="44.43929" lon="5.68939">
        <ele>1076.81</ele>
        <time>2014-10-23T11:09:42Z</time>
      </trkpt>
      <trkpt lat="44.43929" lon="5.6894">
        <ele>1078.26</ele>
        <time>2014-10-23T11:10:19Z</time>
      </trkpt>
      <trkpt lat="44.4393" lon="5.68942">
        <ele>1077.29</ele>
        <time>2014-10-23T11:10:54Z</time>
      </trkpt>
      <trkpt lat="44.4393" lon="5.68943">
        <ele>1077.29</ele>
        <time>2014-10-23T11:11:29Z</time>
      </trkpt>
      <trkpt lat="44.43929" lon="5.68942">
        <ele>1077.29</ele>
        <time>2014-10-23T11:12:01Z</time>
      </trkpt>
      <trkpt lat="44.43929" lon="5.68943">
        <ele>1077.29</ele>
        <time>2014-10-23T11:12:31Z</time>
      </trkpt>
      <trkpt lat="44.43931" lon="5.68946">
        <ele>1076.81</ele>
        <time>2014-10-23T11:13:11Z</time>
      </trkpt>
      <trkpt lat="44.43933" lon="5.68947">
        <ele>1077.78</ele>
        <time>2014-10-23T11:13:50Z</time>
      </trkpt>
      <trkpt lat="44.43934" lon="5.68945">
        <ele>1077.78</ele>
        <time>2014-10-23T11:14:36Z</time>
      </trkpt>
      <trkpt lat="44.43931" lon="5.68944">
        <ele>1070.57</ele>
        <time>2014-10-23T11:14:59Z</time>
      </trkpt>
      <trkpt lat="44.43931" lon="5.68944">
        <ele>1076.33</ele>
        <time>2014-10-23T11:15:00Z</time>
      </trkpt>
      <trkpt lat="44.43932" lon="5.6894">
        <ele>1076.81</ele>
        <time>2014-10-23T11:15:34Z</time>
      </trkpt>
      <trkpt lat="44.43928" lon="5.68941">
        <ele>1076.81</ele>
        <time>2014-10-23T11:16:08Z</time>
      </trkpt>
      <trkpt lat="44.43927" lon="5.68942">
        <ele>1081.62</ele>
        <time>2014-10-23T11:16:42Z</time>
      </trkpt>
      <trkpt lat="44.43926" lon="5.68942">
        <ele>1076.81</ele>
        <time>2014-10-23T11:16:43Z</time>
      </trkpt>
      <trkpt lat="44.43926" lon="5.68943">
        <ele>1076.33</ele>
        <time>2014-10-23T11:16:58Z</time>
      </trkpt>
      <trkpt lat="44.43932" lon="5.68938">
        <ele>1075.37</ele>
        <time>2014-10-23T11:17:40Z</time>
      </trkpt>
      <trkpt lat="44.43937" lon="5.6894">
        <ele>1075.37</ele>
        <time>2014-10-23T11:18:18Z</time>
      </trkpt>
      <trkpt lat="44.43936" lon="5.68941">
        <ele>1074.89</ele>
        <time>2014-10-23T11:18:57Z</time>
      </trkpt>
      <trkpt lat="44.4393" lon="5.68943">
        <ele>1075.37</ele>
        <time>2014-10-23T11:19:30Z</time>
      </trkpt>
      <trkpt lat="44.43933" lon="5.68938">
        <ele>1076.33</ele>
        <time>2014-10-23T11:19:58Z</time>
      </trkpt>
      <trkpt lat="44.43932" lon="5.68938">
        <ele>1075.37</ele>
        <time>2014-10-23T11:20:19Z</time>
      </trkpt>
      <trkpt lat="44.43932" lon="5.68938">
        <ele>1076.33</ele>
        <time>2014-10-23T11:21:00Z</time>
      </trkpt>
      <trkpt lat="44.43932" lon="5.68938">
        <ele>1076.33</ele>
        <time>2014-10-23T11:21:01Z</time>
      </trkpt>
      <trkpt lat="44.43933" lon="5.68939">
        <ele>1078.26</ele>
        <time>2014-10-23T11:21:05Z</time>
      </trkpt>
      <trkpt lat="44.4393" lon="5.68942">
        <ele>1076.33</ele>
        <time>2014-10-23T11:21:45Z</time>
      </trkpt>
      <trkpt lat="44.43931" lon="5.68942">
        <ele>1075.85</ele>
        <time>2014-10-23T11:22:15Z</time>
      </trkpt>
      <trkpt lat="44.43932" lon="5.68941">
        <ele>1075.37</ele>
        <time>2014-10-23T11:22:50Z</time>
      </trkpt>
      <trkpt lat="44.43935" lon="5.6894">
        <ele>1073.93</ele>
        <time>2014-10-23T11:23:27Z</time>
      </trkpt>
      <trkpt lat="44.43936" lon="5.68939">
        <ele>1075.37</ele>
        <time>2014-10-23T11:23:30Z</time>
      </trkpt>
      <trkpt lat="44.43936" lon="5.68938">
        <ele>1076.33</ele>
        <time>2014-10-23T11:24:03Z</time>
      </trkpt>
      <trkpt lat="44.43938" lon="5.6894">
        <ele>1075.37</ele>
        <time>2014-10-23T11:24:43Z</time>
      </trkpt>
      <trkpt lat="44.43936" lon="5.68939">
        <ele>1075.85</ele>
        <time>2014-10-23T11:25:10Z</time>
      </trkpt>
      <trkpt lat="44.43934" lon="5.68941">
        <ele>1075.37</ele>
        <time>2014-10-23T11:25:40Z</time>
      </trkpt>
      <trkpt lat="44.43931" lon="5.68937">
        <ele>1076.33</ele>
        <time>2014-10-23T11:26:14Z</time>
      </trkpt>
      <trkpt lat="44.43938" lon="5.68927">
        <ele>1076.33</ele>
        <time>2014-10-23T11:26:49Z</time>
      </trkpt>
      <trkpt lat="44.43938" lon="5.68928">
        <ele>1074.41</ele>
        <time>2014-10-23T11:27:23Z</time>
      </trkpt>
      <trkpt lat="44.43939" lon="5.68937">
        <ele>1074.41</ele>
        <time>2014-10-23T11:27:56Z</time>
      </trkpt>
      <trkpt lat="44.43935" lon="5.68941">
        <ele>1073.93</ele>
        <time>2014-10-23T11:28:31Z</time>
      </trkpt>
      <trkpt lat="44.43935" lon="5.68941">
        <ele>1073.45</ele>
        <time>2014-10-23T11:28:33Z</time>
      </trkpt>
      <trkpt lat="44.43932" lon="5.68948">
        <ele>1073.93</ele>
        <time>2014-10-23T11:29:11Z</time>
      </trkpt>
      <trkpt lat="44.4393" lon="5.68947">
        <ele>1073.93</ele>
        <time>2014-10-23T11:29:42Z</time>
      </trkpt>
      <trkpt lat="44.43929" lon="5.68944">
        <ele>1074.41</ele>
        <time>2014-10-23T11:30:21Z</time>
      </trkpt>
      <trkpt lat="44.43932" lon="5.68944">
        <ele>1072.97</ele>
        <time>2014-10-23T11:30:44Z</time>
      </trkpt>
      <trkpt lat="44.4393" lon="5.68943">
        <ele>1072.97</ele>
        <time>2014-10-23T11:31:17Z</time>
      </trkpt>
      <trkpt lat="44.43931" lon="5.68943">
        <ele>1074.89</ele>
        <time>2014-10-23T11:31:52Z</time>
      </trkpt>
      <trkpt lat="44.43931" lon="5.68942">
        <ele>1074.89</ele>
        <time>2014-10-23T11:31:53Z</time>
      </trkpt>
      <trkpt lat="44.43931" lon="5.68941">
        <ele>1072.97</ele>
        <time>2014-10-23T11:32:22Z</time>
      </trkpt>
      <trkpt lat="44.4393" lon="5.68938">
        <ele>1072.97</ele>
        <time>2014-10-23T11:32:56Z</time>
      </trkpt>
      <trkpt lat="44.43929" lon="5.68942">
        <ele>1072.49</ele>
        <time>2014-10-23T11:33:39Z</time>
      </trkpt>
      <trkpt lat="44.43933" lon="5.68945">
        <ele>1072.01</ele>
        <time>2014-10-23T11:34:14Z</time>
      </trkpt>
      <trkpt lat="44.43933" lon="5.68946">
        <ele>1073.45</ele>
        <time>2014-10-23T11:34:53Z</time>
      </trkpt>
      <trkpt lat="44.43936" lon="5.68944">
        <ele>1072.01</ele>
        <time>2014-10-23T11:35:24Z</time>
      </trkpt>
      <trkpt lat="44.43935" lon="5.68943">
        <ele>1073.45</ele>
        <time>2014-10-23T11:35:37Z</time>
      </trkpt>
      <trkpt lat="44.43933" lon="5.68943">
        <ele>1072.01</ele>
        <time>2014-10-23T11:36:13Z</time>
      </trkpt>
      <trkpt lat="44.43934" lon="5.68942">
        <ele>1072.49</ele>
        <time>2014-10-23T11:36:56Z</time>
      </trkpt>
      <trkpt lat="44.43933" lon="5.6894">
        <ele>1073.45</ele>
        <time>2014-10-23T11:37:18Z</time>
      </trkpt>
      <trkpt lat="44.43934" lon="5.68942">
        <ele>1071.53</ele>
        <time>2014-10-23T11:37:54Z</time>
      </trkpt>
      <trkpt lat="44.43932" lon="5.68943">
        <ele>1072.49</ele>
        <time>2014-10-23T11:38:15Z</time>
      </trkpt>
      <trkpt lat="44.43929" lon="5.68944">
        <ele>1072.49</ele>
        <time>2014-10-23T11:39:07Z</time>
      </trkpt>
      <trkpt lat="44.43929" lon="5.68944">
        <ele>1072.01</ele>
        <time>2014-10-23T11:40:00Z</time>
      </trkpt>
      <trkpt lat="44.43931" lon="5.6894">
        <ele>1071.53</ele>
        <time>2014-10-23T11:40:51Z</time>
      </trkpt>
      <trkpt lat="44.43932" lon="5.68942">
        <ele>1071.05</ele>
        <time>2014-10-23T11:41:39Z</time>
      </trkpt>
      <trkpt lat="44.43931" lon="5.68941">
        <ele>1073.45</ele>
        <time>2014-10-23T11:41:43Z</time>
      </trkpt>
      <trkpt lat="44.43931" lon="5.68942">
        <ele>1071.05</ele>
        <time>2014-10-23T11:42:17Z</time>
      </trkpt>
      <trkpt lat="44.4393" lon="5.68942">
        <ele>1072.01</ele>
        <time>2014-10-23T11:42:19Z</time>
      </trkpt>
      <trkpt lat="44.43933" lon="5.68942">
        <ele>1070.57</ele>
        <time>2014-10-23T11:43:10Z</time>
      </trkpt>
      <trkpt lat="44.43933" lon="5.68941">
        <ele>1070.57</ele>
        <time>2014-10-23T11:43:48Z</time>
      </trkpt>
      <trkpt lat="44.43932" lon="5.68942">
        <ele>1072.01</ele>
        <time>2014-10-23T11:44:40Z</time>
      </trkpt>
      <trkpt lat="44.4393" lon="5.68941">
        <ele>1071.05</ele>
        <time>2014-10-23T11:45:33Z</time>
      </trkpt>
      <trkpt lat="44.43927" lon="5.68945">
        <ele>1071.53</ele>
        <time>2014-10-23T11:46:22Z</time>
      </trkpt>
      <trkpt lat="44.43931" lon="5.68943">
        <ele>1072.01</ele>
        <time>2014-10-23T11:47:05Z</time>
      </trkpt>
      <trkpt lat="44.43931" lon="5.68944">
        <ele>1071.53</ele>
        <time>2014-10-23T11:47:32Z</time>
      </trkpt>
      <trkpt lat="44.43931" lon="5.68942">
        <ele>1072.49</ele>
        <time>2014-10-23T11:48:18Z</time>
      </trkpt>
      <trkpt lat="44.43932" lon="5.68943">
        <ele>1073.45</ele>
        <time>2014-10-23T11:48:49Z</time>
      </trkpt>
      <trkpt lat="44.43931" lon="5.68943">
        <ele>1069.12</ele>
        <time>2014-10-23T11:48:56Z</time>
      </trkpt>
      <trkpt lat="44.43932" lon="5.68941">
        <ele>1072.49</ele>
        <time>2014-10-23T11:49:17Z</time>
      </trkpt>
      <trkpt lat="44.43932" lon="5.68942">
        <ele>1071.05</ele>
        <time>2014-10-23T11:49:20Z</time>
      </trkpt>
      <trkpt lat="44.43932" lon="5.6894">
        <ele>1071.05</ele>
        <time>2014-10-23T11:50:01Z</time>
      </trkpt>
      <trkpt lat="44.43933" lon="5.6894">
        <ele>1070.08</ele>
        <time>2014-10-23T11:50:29Z</time>
      </trkpt>
      <trkpt lat="44.43935" lon="5.68938">
        <ele>1070.08</ele>
        <time>2014-10-23T11:51:02Z</time>
      </trkpt>
      <trkpt lat="44.4393" lon="5.68941">
        <ele>1070.57</ele>
        <time>2014-10-23T11:51:35Z</time>
      </trkpt>
      <trkpt lat="44.43927" lon="5.68944">
        <ele>1071.53</ele>
        <time>2014-10-23T11:51:49Z</time>
      </trkpt>
      <trkpt lat="44.43926" lon="5.68942">
        <ele>1071.05</ele>
        <time>2014-10-23T11:52:16Z</time>
      </trkpt>
      <trkpt lat="44.43926" lon="5.68945">
        <ele>1072.97</ele>
        <time>2014-10-23T11:52:40Z</time>
      </trkpt>
      <trkpt lat="44.43927" lon="5.68943">
        <ele>1071.53</ele>
        <time>2014-10-23T11:52:55Z</time>
      </trkpt>
      <trkpt lat="44.43927" lon="5.68941">
        <ele>1073.45</ele>
        <time>2014-10-23T11:53:00Z</time>
      </trkpt>
      <trkpt lat="44.43928" lon="5.68941">
        <ele>1072.01</ele>
        <time>2014-10-23T11:53:06Z</time>
      </trkpt>
      <trkpt lat="44.43926" lon="5.68941">
        <ele>1072.97</ele>
        <time>2014-10-23T11:53:22Z</time>
      </trkpt>
      <trkpt lat="44.43926" lon="5.68941">
        <ele>1073.45</ele>
        <time>2014-10-23T11:53:45Z</time>
      </trkpt>
      <trkpt lat="44.43927" lon="5.68942">
        <ele>1073.45</ele>
        <time>2014-10-23T11:54:11Z</time>
      </trkpt>
      <trkpt lat="44.43932" lon="5.68944">
        <ele>1072.97</ele>
        <time>2014-10-23T11:54:25Z</time>
      </trkpt>
      <trkpt lat="44.43932" lon="5.68946">
        <ele>1072.49</ele>
        <time>2014-10-23T11:54:51Z</time>
      </trkpt>
      <trkpt lat="44.4393" lon="5.68944">
        <ele>1073.45</ele>
        <time>2014-10-23T11:55:16Z</time>
      </trkpt>
      <trkpt lat="44.43934" lon="5.68945">
        <ele>1073.45</ele>
        <time>2014-10-23T11:55:41Z</time>
      </trkpt>
      <trkpt lat="44.43936" lon="5.68943">
        <ele>1073.93</ele>
        <time>2014-10-23T11:56:03Z</time>
      </trkpt>
      <trkpt lat="44.43934" lon="5.68958">
        <ele>1071.05</ele>
        <time>2014-10-23T11:56:33Z</time>
      </trkpt>
      <trkpt lat="44.43934" lon="5.68965">
        <ele>1071.53</ele>
        <time>2014-10-23T11:56:38Z</time>
      </trkpt>
      <trkpt lat="44.43934" lon="5.68981">
        <ele>1068.16</ele>
        <time>2014-10-23T11:56:49Z</time>
      </trkpt>
      <trkpt lat="44.43934" lon="5.68984">
        <ele>1067.68</ele>
        <time>2014-10-23T11:56:52Z</time>
      </trkpt>
      <trkpt lat="44.43935" lon="5.6899">
        <ele>1066.24</ele>
        <time>2014-10-23T11:56:56Z</time>
      </trkpt>
      <trkpt lat="44.43936" lon="5.68998">
        <ele>1064.32</ele>
        <time>2014-10-23T11:57:02Z</time>
      </trkpt>
      <trkpt lat="44.43943" lon="5.69015">
        <ele>1062.39</ele>
        <time>2014-10-23T11:57:15Z</time>
      </trkpt>
      <trkpt lat="44.43947" lon="5.69032">
        <ele>1059.03</ele>
        <time>2014-10-23T11:57:27Z</time>
      </trkpt>
      <trkpt lat="44.43948" lon="5.69042">
        <ele>1058.55</ele>
        <time>2014-10-23T11:57:33Z</time>
      </trkpt>
      <trkpt lat="44.43947" lon="5.69066">
        <ele>1057.11</ele>
        <time>2014-10-23T11:57:47Z</time>
      </trkpt>
      <trkpt lat="44.43947" lon="5.69068">
        <ele>1057.11</ele>
        <time>2014-10-23T11:57:49Z</time>
      </trkpt>
      <trkpt lat="44.43936" lon="5.69084">
        <ele>1058.07</ele>
        <time>2014-10-23T11:58:04Z</time>
      </trkpt>
      <trkpt lat="44.43931" lon="5.69098">
        <ele>1056.15</ele>
        <time>2014-10-23T11:58:16Z</time>
      </trkpt>
      <trkpt lat="44.43926" lon="5.69113">
        <ele>1055.18</ele>
        <time>2014-10-23T11:58:28Z</time>
      </trkpt>
      <trkpt lat="44.43916" lon="5.69135">
        <ele>1056.63</ele>
        <time>2014-10-23T11:58:41Z</time>
      </trkpt>
      <trkpt lat="44.43906" lon="5.69158">
        <ele>1057.11</ele>
        <time>2014-10-23T11:58:56Z</time>
      </trkpt>
      <trkpt lat="44.43899" lon="5.69174">
        <ele>1057.59</ele>
        <time>2014-10-23T11:59:13Z</time>
      </trkpt>
      <trkpt lat="44.43898" lon="5.69182">
        <ele>1058.55</ele>
        <time>2014-10-23T11:59:27Z</time>
      </trkpt>
      <trkpt lat="44.43897" lon="5.69184">
        <ele>1058.07</ele>
        <time>2014-10-23T11:59:29Z</time>
      </trkpt>
      <trkpt lat="44.43894" lon="5.69198">
        <ele>1057.59</ele>
        <time>2014-10-23T11:59:43Z</time>
      </trkpt>
      <trkpt lat="44.43894" lon="5.69199">
        <ele>1057.11</ele>
        <time>2014-10-23T11:59:44Z</time>
      </trkpt>
      <trkpt lat="44.4389" lon="5.69206">
        <ele>1056.15</ele>
        <time>2014-10-23T11:59:51Z</time>
      </trkpt>
      <trkpt lat="44.43886" lon="5.69216">
        <ele>1055.67</ele>
        <time>2014-10-23T12:00:02Z</time>
      </trkpt>
      <trkpt lat="44.43884" lon="5.69226">
        <ele>1052.78</ele>
        <time>2014-10-23T12:00:12Z</time>
      </trkpt>
      <trkpt lat="44.43878" lon="5.69242">
        <ele>1049.42</ele>
        <time>2014-10-23T12:00:27Z</time>
      </trkpt>
      <trkpt lat="44.43877" lon="5.69243">
        <ele>1049.42</ele>
        <time>2014-10-23T12:00:28Z</time>
      </trkpt>
      <trkpt lat="44.43874" lon="5.69249">
        <ele>1047.97</ele>
        <time>2014-10-23T12:00:34Z</time>
      </trkpt>
      <trkpt lat="44.43865" lon="5.69265">
        <ele>1046.05</ele>
        <time>2014-10-23T12:00:51Z</time>
      </trkpt>
      <trkpt lat="44.43857" lon="5.69273">
        <ele>1043.17</ele>
        <time>2014-10-23T12:01:02Z</time>
      </trkpt>
      <trkpt lat="44.43847" lon="5.6928">
        <ele>1040.76</ele>
        <time>2014-10-23T12:01:16Z</time>
      </trkpt>
      <trkpt lat="44.43843" lon="5.69284">
        <ele>1039.8</ele>
        <time>2014-10-23T12:01:21Z</time>
      </trkpt>
      <trkpt lat="44.43833" lon="5.69296">
        <ele>1036.92</ele>
        <time>2014-10-23T12:01:36Z</time>
      </trkpt>
      <trkpt lat="44.43822" lon="5.6931">
        <ele>1034.52</ele>
        <time>2014-10-23T12:01:51Z</time>
      </trkpt>
      <trkpt lat="44.43813" lon="5.69323">
        <ele>1034.52</ele>
        <time>2014-10-23T12:02:05Z</time>
      </trkpt>
      <trkpt lat="44.43807" lon="5.69338">
        <ele>1035.96</ele>
        <time>2014-10-23T12:02:19Z</time>
      </trkpt>
      <trkpt lat="44.43798" lon="5.69362">
        <ele>1033.55</ele>
        <time>2014-10-23T12:02:38Z</time>
      </trkpt>
      <trkpt lat="44.43797" lon="5.69365">
        <ele>1033.55</ele>
        <time>2014-10-23T12:02:41Z</time>
      </trkpt>
      <trkpt lat="44.43795" lon="5.69374">
        <ele>1032.59</ele>
        <time>2014-10-23T12:02:52Z</time>
      </trkpt>
      <trkpt lat="44.43793" lon="5.69382">
        <ele>1031.63</ele>
        <time>2014-10-23T12:03:06Z</time>
      </trkpt>
      <trkpt lat="44.43792" lon="5.69385">
        <ele>1029.71</ele>
        <time>2014-10-23T12:03:13Z</time>
      </trkpt>
      <trkpt lat="44.43793" lon="5.69385">
        <ele>1029.71</ele>
        <time>2014-10-23T12:03:26Z</time>
      </trkpt>
      <trkpt lat="44.43787" lon="5.69392">
        <ele>1029.23</ele>
        <time>2014-10-23T12:03:39Z</time>
      </trkpt>
      <trkpt lat="44.43785" lon="5.69392">
        <ele>1029.23</ele>
        <time>2014-10-23T12:03:54Z</time>
      </trkpt>
      <trkpt lat="44.43785" lon="5.69391">
        <ele>1029.23</ele>
        <time>2014-10-23T12:03:55Z</time>
      </trkpt>
      <trkpt lat="44.43785" lon="5.69392">
        <ele>1031.15</ele>
        <time>2014-10-23T12:04:18Z</time>
      </trkpt>
      <trkpt lat="44.43785" lon="5.6939">
        <ele>1030.19</ele>
        <time>2014-10-23T12:04:36Z</time>
      </trkpt>
      <trkpt lat="44.43782" lon="5.69392">
        <ele>1030.67</ele>
        <time>2014-10-23T12:04:55Z</time>
      </trkpt>
      <trkpt lat="44.43786" lon="5.69385">
        <ele>1030.67</ele>
        <time>2014-10-23T12:05:17Z</time>
      </trkpt>
      <trkpt lat="44.43788" lon="5.69389">
        <ele>1029.23</ele>
        <time>2014-10-23T12:05:43Z</time>
      </trkpt>
      <trkpt lat="44.43789" lon="5.69389">
        <ele>1028.27</ele>
        <time>2014-10-23T12:05:47Z</time>
      </trkpt>
      <trkpt lat="44.43788" lon="5.69389">
        <ele>1030.67</ele>
        <time>2014-10-23T12:05:51Z</time>
      </trkpt>
      <trkpt lat="44.43787" lon="5.69385">
        <ele>1029.71</ele>
        <time>2014-10-23T12:06:07Z</time>
      </trkpt>
      <trkpt lat="44.43786" lon="5.69385">
        <ele>1029.71</ele>
        <time>2014-10-23T12:06:23Z</time>
      </trkpt>
      <trkpt lat="44.4379" lon="5.69391">
        <ele>1029.23</ele>
        <time>2014-10-23T12:06:49Z</time>
      </trkpt>
      <trkpt lat="44.43791" lon="5.69391">
        <ele>1030.19</ele>
        <time>2014-10-23T12:07:13Z</time>
      </trkpt>
      <trkpt lat="44.438" lon="5.69388">
        <ele>1031.15</ele>
        <time>2014-10-23T12:07:28Z</time>
      </trkpt>
      <trkpt lat="44.43812" lon="5.6938">
        <ele>1028.27</ele>
        <time>2014-10-23T12:07:46Z</time>
      </trkpt>
      <trkpt lat="44.43812" lon="5.69379">
        <ele>1028.27</ele>
        <time>2014-10-23T12:07:47Z</time>
      </trkpt>
      <trkpt lat="44.43831" lon="5.69365">
        <ele>1030.19</ele>
        <time>2014-10-23T12:08:06Z</time>
      </trkpt>
      <trkpt lat="44.43845" lon="5.6936">
        <ele>1029.23</ele>
        <time>2014-10-23T12:08:21Z</time>
      </trkpt>
      <trkpt lat="44.43857" lon="5.6936">
        <ele>1030.19</ele>
        <time>2014-10-23T12:08:37Z</time>
      </trkpt>
      <trkpt lat="44.43867" lon="5.69363">
        <ele>1029.71</ele>
        <time>2014-10-23T12:08:48Z</time>
      </trkpt>
      <trkpt lat="44.43885" lon="5.69364">
        <ele>1029.23</ele>
        <time>2014-10-23T12:09:04Z</time>
      </trkpt>
      <trkpt lat="44.43888" lon="5.69362">
        <ele>1028.27</ele>
        <time>2014-10-23T12:09:07Z</time>
      </trkpt>
      <trkpt lat="44.43895" lon="5.69358">
        <ele>1027.31</ele>
        <time>2014-10-23T12:09:15Z</time>
      </trkpt>
      <trkpt lat="44.4391" lon="5.69348">
        <ele>1027.31</ele>
        <time>2014-10-23T12:09:30Z</time>
      </trkpt>
      <trkpt lat="44.43924" lon="5.69344">
        <ele>1026.34</ele>
        <time>2014-10-23T12:09:41Z</time>
      </trkpt>
      <trkpt lat="44.4394" lon="5.69339">
        <ele>1024.42</ele>
        <time>2014-10-23T12:09:56Z</time>
      </trkpt>
      <trkpt lat="44.4396" lon="5.69329">
        <ele>1023.46</ele>
        <time>2014-10-23T12:10:13Z</time>
      </trkpt>
      <trkpt lat="44.43976" lon="5.69322">
        <ele>1022.98</ele>
        <time>2014-10-23T12:10:29Z</time>
      </trkpt>
      <trkpt lat="44.43988" lon="5.69316">
        <ele>1020.1</ele>
        <time>2014-10-23T12:10:40Z</time>
      </trkpt>
      <trkpt lat="44.44009" lon="5.69312">
        <ele>1019.62</ele>
        <time>2014-10-23T12:10:55Z</time>
      </trkpt>
      <trkpt lat="44.44011" lon="5.69314">
        <ele>1019.13</ele>
        <time>2014-10-23T12:10:57Z</time>
      </trkpt>
      <trkpt lat="44.44016" lon="5.69336">
        <ele>1015.29</ele>
        <time>2014-10-23T12:11:12Z</time>
      </trkpt>
      <trkpt lat="44.44017" lon="5.69342">
        <ele>1014.33</ele>
        <time>2014-10-23T12:11:17Z</time>
      </trkpt>
      <trkpt lat="44.44016" lon="5.69351">
        <ele>1011.93</ele>
        <time>2014-10-23T12:11:23Z</time>
      </trkpt>
      <trkpt lat="44.44014" lon="5.69357">
        <ele>1010.96</ele>
        <time>2014-10-23T12:11:27Z</time>
      </trkpt>
      <trkpt lat="44.44013" lon="5.69365">
        <ele>1009.52</ele>
        <time>2014-10-23T12:11:34Z</time>
      </trkpt>
      <trkpt lat="44.44014" lon="5.69383">
        <ele>1006.64</ele>
        <time>2014-10-23T12:11:50Z</time>
      </trkpt>
      <trkpt lat="44.44016" lon="5.69395">
        <ele>1003.75</ele>
        <time>2014-10-23T12:12:04Z</time>
      </trkpt>
      <trkpt lat="44.44016" lon="5.69409">
        <ele>1000.87</ele>
        <time>2014-10-23T12:12:19Z</time>
      </trkpt>
      <trkpt lat="44.44017" lon="5.69419">
        <ele>996.54</ele>
        <time>2014-10-23T12:12:28Z</time>
      </trkpt>
      <trkpt lat="44.44017" lon="5.6942">
        <ele>997.02</ele>
        <time>2014-10-23T12:12:29Z</time>
      </trkpt>
      <trkpt lat="44.44017" lon="5.69425">
        <ele>998.95</ele>
        <time>2014-10-23T12:12:33Z</time>
      </trkpt>
      <trkpt lat="44.44018" lon="5.69435">
        <ele>998.47</ele>
        <time>2014-10-23T12:12:41Z</time>
      </trkpt>
      <trkpt lat="44.44018" lon="5.69439">
        <ele>997.02</ele>
        <time>2014-10-23T12:12:44Z</time>
      </trkpt>
      <trkpt lat="44.44019" lon="5.6945">
        <ele>996.06</ele>
        <time>2014-10-23T12:12:52Z</time>
      </trkpt>
      <trkpt lat="44.4402" lon="5.6946">
        <ele>995.1</ele>
        <time>2014-10-23T12:13:08Z</time>
      </trkpt>
      <trkpt lat="44.44019" lon="5.69468">
        <ele>991.74</ele>
        <time>2014-10-23T12:13:19Z</time>
      </trkpt>
      <trkpt lat="44.44018" lon="5.69482">
        <ele>988.85</ele>
        <time>2014-10-23T12:13:34Z</time>
      </trkpt>
      <trkpt lat="44.44018" lon="5.69492">
        <ele>986.93</ele>
        <time>2014-10-23T12:13:47Z</time>
      </trkpt>
      <trkpt lat="44.44018" lon="5.69494">
        <ele>985.49</ele>
        <time>2014-10-23T12:13:50Z</time>
      </trkpt>
      <trkpt lat="44.44016" lon="5.69507">
        <ele>982.12</ele>
        <time>2014-10-23T12:14:01Z</time>
      </trkpt>
      <trkpt lat="44.44015" lon="5.69515">
        <ele>981.64</ele>
        <time>2014-10-23T12:14:18Z</time>
      </trkpt>
      <trkpt lat="44.44015" lon="5.69524">
        <ele>978.76</ele>
        <time>2014-10-23T12:14:32Z</time>
      </trkpt>
      <trkpt lat="44.44014" lon="5.69528">
        <ele>978.76</ele>
        <time>2014-10-23T12:14:46Z</time>
      </trkpt>
      <trkpt lat="44.44013" lon="5.69539">
        <ele>975.39</ele>
        <time>2014-10-23T12:14:59Z</time>
      </trkpt>
      <trkpt lat="44.44012" lon="5.69552">
        <ele>973.47</ele>
        <time>2014-10-23T12:15:13Z</time>
      </trkpt>
      <trkpt lat="44.4401" lon="5.69564">
        <ele>970.59</ele>
        <time>2014-10-23T12:15:26Z</time>
      </trkpt>
      <trkpt lat="44.4401" lon="5.69576">
        <ele>968.18</ele>
        <time>2014-10-23T12:15:39Z</time>
      </trkpt>
      <trkpt lat="44.4401" lon="5.69578">
        <ele>967.22</ele>
        <time>2014-10-23T12:15:41Z</time>
      </trkpt>
      <trkpt lat="44.44009" lon="5.69581">
        <ele>969.15</ele>
        <time>2014-10-23T12:15:44Z</time>
      </trkpt>
      <trkpt lat="44.4401" lon="5.69586">
        <ele>965.78</ele>
        <time>2014-10-23T12:15:49Z</time>
      </trkpt>
      <trkpt lat="44.44009" lon="5.69597">
        <ele>964.34</ele>
        <time>2014-10-23T12:16:03Z</time>
      </trkpt>
      <trkpt lat="44.44008" lon="5.696">
        <ele>960.98</ele>
        <time>2014-10-23T12:16:08Z</time>
      </trkpt>
      <trkpt lat="44.44008" lon="5.696">
        <ele>961.46</ele>
        <time>2014-10-23T12:16:09Z</time>
      </trkpt>
      <trkpt lat="44.44007" lon="5.69603">
        <ele>963.38</ele>
        <time>2014-10-23T12:16:13Z</time>
      </trkpt>
      <trkpt lat="44.44007" lon="5.69613">
        <ele>961.46</ele>
        <time>2014-10-23T12:16:26Z</time>
      </trkpt>
      <trkpt lat="44.44008" lon="5.69625">
        <ele>960.98</ele>
        <time>2014-10-23T12:16:39Z</time>
      </trkpt>
      <trkpt lat="44.44009" lon="5.69636">
        <ele>958.09</ele>
        <time>2014-10-23T12:16:52Z</time>
      </trkpt>
      <trkpt lat="44.4401" lon="5.69642">
        <ele>954.73</ele>
        <time>2014-10-23T12:16:58Z</time>
      </trkpt>
      <trkpt lat="44.4401" lon="5.69646">
        <ele>953.77</ele>
        <time>2014-10-23T12:17:01Z</time>
      </trkpt>
      <trkpt lat="44.44007" lon="5.69665">
        <ele>952.8</ele>
        <time>2014-10-23T12:17:16Z</time>
      </trkpt>
      <trkpt lat="44.44" lon="5.69672">
        <ele>950.4</ele>
        <time>2014-10-23T12:17:23Z</time>
      </trkpt>
      <trkpt lat="44.43986" lon="5.69683">
        <ele>948.48</ele>
        <time>2014-10-23T12:17:38Z</time>
      </trkpt>
      <trkpt lat="44.43977" lon="5.69697">
        <ele>949.44</ele>
        <time>2014-10-23T12:17:55Z</time>
      </trkpt>
      <trkpt lat="44.43976" lon="5.69704">
        <ele>945.59</ele>
        <time>2014-10-23T12:18:03Z</time>
      </trkpt>
      <trkpt lat="44.43971" lon="5.69717">
        <ele>944.15</ele>
        <time>2014-10-23T12:18:17Z</time>
      </trkpt>
      <trkpt lat="44.43965" lon="5.69732">
        <ele>943.19</ele>
        <time>2014-10-23T12:18:31Z</time>
      </trkpt>
      <trkpt lat="44.43964" lon="5.69735">
        <ele>941.75</ele>
        <time>2014-10-23T12:18:37Z</time>
      </trkpt>
      <trkpt lat="44.4396" lon="5.69739">
        <ele>942.71</ele>
        <time>2014-10-23T12:18:52Z</time>
      </trkpt>
      <trkpt lat="44.43963" lon="5.69738">
        <ele>943.67</ele>
        <time>2014-10-23T12:19:11Z</time>
      </trkpt>
      <trkpt lat="44.43962" lon="5.69742">
        <ele>942.23</ele>
        <time>2014-10-23T12:19:25Z</time>
      </trkpt>
      <trkpt lat="44.43963" lon="5.69742">
        <ele>945.59</ele>
        <time>2014-10-23T12:19:33Z</time>
      </trkpt>
      <trkpt lat="44.43963" lon="5.69746">
        <ele>941.75</ele>
        <time>2014-10-23T12:19:38Z</time>
      </trkpt>
      <trkpt lat="44.43963" lon="5.69747">
        <ele>941.75</ele>
        <time>2014-10-23T12:19:39Z</time>
      </trkpt>
      <trkpt lat="44.43964" lon="5.69757">
        <ele>941.75</ele>
        <time>2014-10-23T12:19:52Z</time>
      </trkpt>
      <trkpt lat="44.43963" lon="5.6976">
        <ele>940.31</ele>
        <time>2014-10-23T12:20:07Z</time>
      </trkpt>
      <trkpt lat="44.43962" lon="5.69764">
        <ele>938.86</ele>
        <time>2014-10-23T12:20:26Z</time>
      </trkpt>
      <trkpt lat="44.43963" lon="5.6976">
        <ele>942.23</ele>
        <time>2014-10-23T12:20:39Z</time>
      </trkpt>
      <trkpt lat="44.43965" lon="5.69767">
        <ele>939.83</ele>
        <time>2014-10-23T12:20:54Z</time>
      </trkpt>
      <trkpt lat="44.43965" lon="5.6978">
        <ele>938.38</ele>
        <time>2014-10-23T12:21:09Z</time>
      </trkpt>
      <trkpt lat="44.43965" lon="5.69783">
        <ele>936.94</ele>
        <time>2014-10-23T12:21:12Z</time>
      </trkpt>
      <trkpt lat="44.43966" lon="5.69802">
        <ele>935.02</ele>
        <time>2014-10-23T12:21:27Z</time>
      </trkpt>
      <trkpt lat="44.43964" lon="5.69811">
        <ele>931.65</ele>
        <time>2014-10-23T12:21:33Z</time>
      </trkpt>
      <trkpt lat="44.43952" lon="5.69827">
        <ele>930.21</ele>
        <time>2014-10-23T12:21:48Z</time>
      </trkpt>
      <trkpt lat="44.43951" lon="5.69847">
        <ele>928.29</ele>
        <time>2014-10-23T12:22:03Z</time>
      </trkpt>
      <trkpt lat="44.4395" lon="5.69849">
        <ele>927.81</ele>
        <time>2014-10-23T12:22:04Z</time>
      </trkpt>
      <trkpt lat="44.43949" lon="5.69856">
        <ele>926.37</ele>
        <time>2014-10-23T12:22:09Z</time>
      </trkpt>
      <trkpt lat="44.43947" lon="5.69878">
        <ele>926.37</ele>
        <time>2014-10-23T12:22:25Z</time>
      </trkpt>
      <trkpt lat="44.43945" lon="5.69901">
        <ele>924.93</ele>
        <time>2014-10-23T12:22:43Z</time>
      </trkpt>
      <trkpt lat="44.43942" lon="5.69917">
        <ele>921.56</ele>
        <time>2014-10-23T12:22:56Z</time>
      </trkpt>
      <trkpt lat="44.43941" lon="5.6992">
        <ele>921.08</ele>
        <time>2014-10-23T12:22:58Z</time>
      </trkpt>
      <trkpt lat="44.43938" lon="5.69944">
        <ele>918.2</ele>
        <time>2014-10-23T12:23:14Z</time>
      </trkpt>
      <trkpt lat="44.43935" lon="5.69952">
        <ele>915.31</ele>
        <time>2014-10-23T12:23:20Z</time>
      </trkpt>
      <trkpt lat="44.43928" lon="5.69975">
        <ele>916.27</ele>
        <time>2014-10-23T12:23:37Z</time>
      </trkpt>
      <trkpt lat="44.43921" lon="5.69992">
        <ele>914.35</ele>
        <time>2014-10-23T12:23:51Z</time>
      </trkpt>
      <trkpt lat="44.4391" lon="5.70008">
        <ele>913.39</ele>
        <time>2014-10-23T12:24:08Z</time>
      </trkpt>
      <trkpt lat="44.43905" lon="5.70023">
        <ele>910.51</ele>
        <time>2014-10-23T12:24:21Z</time>
      </trkpt>
      <trkpt lat="44.43903" lon="5.70032">
        <ele>907.14</ele>
        <time>2014-10-23T12:24:29Z</time>
      </trkpt>
      <trkpt lat="44.43899" lon="5.70048">
        <ele>906.66</ele>
        <time>2014-10-23T12:24:44Z</time>
      </trkpt>
      <trkpt lat="44.43895" lon="5.70058">
        <ele>903.3</ele>
        <time>2014-10-23T12:24:53Z</time>
      </trkpt>
      <trkpt lat="44.43885" lon="5.70074">
        <ele>900.89</ele>
        <time>2014-10-23T12:25:10Z</time>
      </trkpt>
      <trkpt lat="44.43875" lon="5.70089">
        <ele>897.53</ele>
        <time>2014-10-23T12:25:26Z</time>
      </trkpt>
      <trkpt lat="44.43865" lon="5.70105">
        <ele>895.61</ele>
        <time>2014-10-23T12:25:42Z</time>
      </trkpt>
      <trkpt lat="44.43863" lon="5.70108">
        <ele>894.16</ele>
        <time>2014-10-23T12:25:45Z</time>
      </trkpt>
      <trkpt lat="44.43859" lon="5.70117">
        <ele>893.2</ele>
        <time>2014-10-23T12:25:52Z</time>
      </trkpt>
      <trkpt lat="44.43847" lon="5.70135">
        <ele>890.32</ele>
        <time>2014-10-23T12:26:10Z</time>
      </trkpt>
      <trkpt lat="44.43843" lon="5.70145">
        <ele>888.88</ele>
        <time>2014-10-23T12:26:19Z</time>
      </trkpt>
      <trkpt lat="44.43841" lon="5.70153">
        <ele>889.84</ele>
        <time>2014-10-23T12:26:26Z</time>
      </trkpt>
      <trkpt lat="44.43836" lon="5.70169">
        <ele>886.47</ele>
        <time>2014-10-23T12:26:41Z</time>
      </trkpt>
      <trkpt lat="44.43835" lon="5.70172">
        <ele>885.51</ele>
        <time>2014-10-23T12:26:43Z</time>
      </trkpt>
      <trkpt lat="44.43832" lon="5.70181">
        <ele>882.63</ele>
        <time>2014-10-23T12:26:53Z</time>
      </trkpt>
      <trkpt lat="44.43827" lon="5.702">
        <ele>879.26</ele>
        <time>2014-10-23T12:27:10Z</time>
      </trkpt>
      <trkpt lat="44.43823" lon="5.70216">
        <ele>876.38</ele>
        <time>2014-10-23T12:27:22Z</time>
      </trkpt>
      <trkpt lat="44.43816" lon="5.70231">
        <ele>873.01</ele>
        <time>2014-10-23T12:27:34Z</time>
      </trkpt>
      <trkpt lat="44.43807" lon="5.70245">
        <ele>870.13</ele>
        <time>2014-10-23T12:27:48Z</time>
      </trkpt>
      <trkpt lat="44.43802" lon="5.70258">
        <ele>866.77</ele>
        <time>2014-10-23T12:27:59Z</time>
      </trkpt>
      <trkpt lat="44.43796" lon="5.70281">
        <ele>865.32</ele>
        <time>2014-10-23T12:28:17Z</time>
      </trkpt>
      <trkpt lat="44.43794" lon="5.70292">
        <ele>861.96</ele>
        <time>2014-10-23T12:28:25Z</time>
      </trkpt>
      <trkpt lat="44.43788" lon="5.70308">
        <ele>858.59</ele>
        <time>2014-10-23T12:28:41Z</time>
      </trkpt>
      <trkpt lat="44.43788" lon="5.7031">
        <ele>857.63</ele>
        <time>2014-10-23T12:28:43Z</time>
      </trkpt>
      <trkpt lat="44.43786" lon="5.70319">
        <ele>856.67</ele>
        <time>2014-10-23T12:28:58Z</time>
      </trkpt>
      <trkpt lat="44.43785" lon="5.70322">
        <ele>855.23</ele>
        <time>2014-10-23T12:29:01Z</time>
      </trkpt>
      <trkpt lat="44.43783" lon="5.70328">
        <ele>855.23</ele>
        <time>2014-10-23T12:29:18Z</time>
      </trkpt>
      <trkpt lat="44.43783" lon="5.70328">
        <ele>855.23</ele>
        <time>2014-10-23T12:29:45Z</time>
      </trkpt>
      <trkpt lat="44.43779" lon="5.70335">
        <ele>854.75</ele>
        <time>2014-10-23T12:30:16Z</time>
      </trkpt>
      <trkpt lat="44.43779" lon="5.70344">
        <ele>850.9</ele>
        <time>2014-10-23T12:30:27Z</time>
      </trkpt>
      <trkpt lat="44.43778" lon="5.70348">
        <ele>849.94</ele>
        <time>2014-10-23T12:30:30Z</time>
      </trkpt>
      <trkpt lat="44.43777" lon="5.70354">
        <ele>848.5</ele>
        <time>2014-10-23T12:30:37Z</time>
      </trkpt>
      <trkpt lat="44.43775" lon="5.70361">
        <ele>845.14</ele>
        <time>2014-10-23T12:30:45Z</time>
      </trkpt>
      <trkpt lat="44.43773" lon="5.70372">
        <ele>843.69</ele>
        <time>2014-10-23T12:30:59Z</time>
      </trkpt>
      <trkpt lat="44.43773" lon="5.70384">
        <ele>840.33</ele>
        <time>2014-10-23T12:31:13Z</time>
      </trkpt>
      <trkpt lat="44.43771" lon="5.70398">
        <ele>838.41</ele>
        <time>2014-10-23T12:31:30Z</time>
      </trkpt>
      <trkpt lat="44.43768" lon="5.70406">
        <ele>836</ele>
        <time>2014-10-23T12:31:41Z</time>
      </trkpt>
      <trkpt lat="44.43768" lon="5.70414">
        <ele>833.6</ele>
        <time>2014-10-23T12:31:51Z</time>
      </trkpt>
      <trkpt lat="44.43764" lon="5.70424">
        <ele>830.72</ele>
        <time>2014-10-23T12:32:05Z</time>
      </trkpt>
      <trkpt lat="44.4376" lon="5.70433">
        <ele>827.83</ele>
        <time>2014-10-23T12:32:19Z</time>
      </trkpt>
      <trkpt lat="44.43757" lon="5.7044">
        <ele>824.95</ele>
        <time>2014-10-23T12:32:27Z</time>
      </trkpt>
      <trkpt lat="44.43751" lon="5.70453">
        <ele>823.51</ele>
        <time>2014-10-23T12:32:43Z</time>
      </trkpt>
      <trkpt lat="44.43748" lon="5.70461">
        <ele>821.1</ele>
        <time>2014-10-23T12:32:57Z</time>
      </trkpt>
      <trkpt lat="44.43745" lon="5.7047">
        <ele>819.66</ele>
        <time>2014-10-23T12:33:13Z</time>
      </trkpt>
      <trkpt lat="44.43743" lon="5.70476">
        <ele>819.18</ele>
        <time>2014-10-23T12:33:25Z</time>
      </trkpt>
      <trkpt lat="44.43742" lon="5.70483">
        <ele>816.3</ele>
        <time>2014-10-23T12:33:35Z</time>
      </trkpt>
      <trkpt lat="44.4374" lon="5.70491">
        <ele>813.89</ele>
        <time>2014-10-23T12:33:50Z</time>
      </trkpt>
      <trkpt lat="44.43739" lon="5.70497">
        <ele>811.01</ele>
        <time>2014-10-23T12:34:01Z</time>
      </trkpt>
      <trkpt lat="44.43738" lon="5.70506">
        <ele>809.09</ele>
        <time>2014-10-23T12:34:15Z</time>
      </trkpt>
      <trkpt lat="44.43736" lon="5.70517">
        <ele>805.72</ele>
        <time>2014-10-23T12:34:27Z</time>
      </trkpt>
      <trkpt lat="44.43736" lon="5.70518">
        <ele>805.72</ele>
        <time>2014-10-23T12:34:28Z</time>
      </trkpt>
      <trkpt lat="44.43733" lon="5.70532">
        <ele>803.32</ele>
        <time>2014-10-23T12:34:45Z</time>
      </trkpt>
      <trkpt lat="44.43728" lon="5.70547">
        <ele>800.92</ele>
        <time>2014-10-23T12:35:02Z</time>
      </trkpt>
      <trkpt lat="44.43724" lon="5.70555">
        <ele>800.44</ele>
        <time>2014-10-23T12:35:15Z</time>
      </trkpt>
      <trkpt lat="44.43716" lon="5.70568">
        <ele>797.07</ele>
        <time>2014-10-23T12:35:31Z</time>
      </trkpt>
      <trkpt lat="44.43714" lon="5.70574">
        <ele>794.19</ele>
        <time>2014-10-23T12:35:43Z</time>
      </trkpt>
      <trkpt lat="44.43708" lon="5.70585">
        <ele>791.3</ele>
        <time>2014-10-23T12:36:00Z</time>
      </trkpt>
      <trkpt lat="44.43703" lon="5.70594">
        <ele>788.9</ele>
        <time>2014-10-23T12:36:14Z</time>
      </trkpt>
      <trkpt lat="44.43698" lon="5.70601">
        <ele>786.02</ele>
        <time>2014-10-23T12:36:28Z</time>
      </trkpt>
      <trkpt lat="44.4369" lon="5.70612">
        <ele>783.13</ele>
        <time>2014-10-23T12:36:44Z</time>
      </trkpt>
      <trkpt lat="44.43681" lon="5.70622">
        <ele>781.21</ele>
        <time>2014-10-23T12:37:03Z</time>
      </trkpt>
      <trkpt lat="44.43676" lon="5.70622">
        <ele>780.25</ele>
        <time>2014-10-23T12:37:17Z</time>
      </trkpt>
      <trkpt lat="44.43679" lon="5.70622">
        <ele>778.81</ele>
        <time>2014-10-23T12:37:32Z</time>
      </trkpt>
      <trkpt lat="44.43676" lon="5.70624">
        <ele>780.25</ele>
        <time>2014-10-23T12:38:08Z</time>
      </trkpt>
      <trkpt lat="44.43676" lon="5.70624">
        <ele>780.25</ele>
        <time>2014-10-23T12:38:09Z</time>
      </trkpt>
      <trkpt lat="44.43676" lon="5.70623">
        <ele>780.25</ele>
        <time>2014-10-23T12:38:22Z</time>
      </trkpt>
      <trkpt lat="44.43679" lon="5.70625">
        <ele>780.25</ele>
        <time>2014-10-23T12:38:42Z</time>
      </trkpt>
      <trkpt lat="44.43682" lon="5.70625">
        <ele>780.73</ele>
        <time>2014-10-23T12:38:59Z</time>
      </trkpt>
      <trkpt lat="44.43682" lon="5.70627">
        <ele>779.77</ele>
        <time>2014-10-23T12:39:40Z</time>
      </trkpt>
      <trkpt lat="44.43675" lon="5.70627">
        <ele>779.77</ele>
        <time>2014-10-23T12:39:56Z</time>
      </trkpt>
      <trkpt lat="44.43671" lon="5.70628">
        <ele>779.29</ele>
        <time>2014-10-23T12:40:09Z</time>
      </trkpt>
      <trkpt lat="44.43669" lon="5.7063">
        <ele>780.25</ele>
        <time>2014-10-23T12:40:35Z</time>
      </trkpt>
      <trkpt lat="44.4367" lon="5.70632">
        <ele>780.25</ele>
        <time>2014-10-23T12:41:05Z</time>
      </trkpt>
      <trkpt lat="44.4367" lon="5.7063">
        <ele>780.73</ele>
        <time>2014-10-23T12:41:33Z</time>
      </trkpt>
      <trkpt lat="44.43669" lon="5.70631">
        <ele>780.25</ele>
        <time>2014-10-23T12:42:00Z</time>
      </trkpt>
      <trkpt lat="44.4367" lon="5.70632">
        <ele>779.77</ele>
        <time>2014-10-23T12:42:24Z</time>
      </trkpt>
      <trkpt lat="44.43665" lon="5.70634">
        <ele>778.81</ele>
        <time>2014-10-23T12:42:40Z</time>
      </trkpt>
      <trkpt lat="44.43657" lon="5.70636">
        <ele>776.4</ele>
        <time>2014-10-23T12:42:52Z</time>
      </trkpt>
      <trkpt lat="44.43646" lon="5.70638">
        <ele>773.52</ele>
        <time>2014-10-23T12:43:09Z</time>
      </trkpt>
      <trkpt lat="44.43634" lon="5.70641">
        <ele>771.6</ele>
        <time>2014-10-23T12:43:26Z</time>
      </trkpt>
      <trkpt lat="44.43632" lon="5.70644">
        <ele>770.63</ele>
        <time>2014-10-23T12:43:31Z</time>
      </trkpt>
      <trkpt lat="44.43628" lon="5.70649">
        <ele>767.75</ele>
        <time>2014-10-23T12:43:40Z</time>
      </trkpt>
      <trkpt lat="44.43622" lon="5.70657">
        <ele>765.83</ele>
        <time>2014-10-23T12:43:53Z</time>
      </trkpt>
      <trkpt lat="44.43616" lon="5.70663">
        <ele>763.9</ele>
        <time>2014-10-23T12:44:07Z</time>
      </trkpt>
      <trkpt lat="44.43613" lon="5.70667">
        <ele>762.94</ele>
        <time>2014-10-23T12:44:21Z</time>
      </trkpt>
      <trkpt lat="44.43606" lon="5.70674">
        <ele>760.54</ele>
        <time>2014-10-23T12:44:38Z</time>
      </trkpt>
      <trkpt lat="44.43599" lon="5.70679">
        <ele>757.18</ele>
        <time>2014-10-23T12:44:51Z</time>
      </trkpt>
      <trkpt lat="44.43591" lon="5.70686">
        <ele>755.25</ele>
        <time>2014-10-23T12:45:08Z</time>
      </trkpt>
      <trkpt lat="44.43591" lon="5.70688">
        <ele>754.29</ele>
        <time>2014-10-23T12:45:13Z</time>
      </trkpt>
      <trkpt lat="44.43591" lon="5.707">
        <ele>750.93</ele>
        <time>2014-10-23T12:45:27Z</time>
      </trkpt>
      <trkpt lat="44.43595" lon="5.7071">
        <ele>749.49</ele>
        <time>2014-10-23T12:45:40Z</time>
      </trkpt>
      <trkpt lat="44.43599" lon="5.70724">
        <ele>746.6</ele>
        <time>2014-10-23T12:45:55Z</time>
      </trkpt>
      <trkpt lat="44.43601" lon="5.70737">
        <ele>743.24</ele>
        <time>2014-10-23T12:46:07Z</time>
      </trkpt>
      <trkpt lat="44.43604" lon="5.70751">
        <ele>740.35</ele>
        <time>2014-10-23T12:46:21Z</time>
      </trkpt>
      <trkpt lat="44.43605" lon="5.70757">
        <ele>738.91</ele>
        <time>2014-10-23T12:46:28Z</time>
      </trkpt>
      <trkpt lat="44.43608" lon="5.70766">
        <ele>735.55</ele>
        <time>2014-10-23T12:46:41Z</time>
      </trkpt>
      <trkpt lat="44.43609" lon="5.70773">
        <ele>735.07</ele>
        <time>2014-10-23T12:46:54Z</time>
      </trkpt>
      <trkpt lat="44.43614" lon="5.70782">
        <ele>732.18</ele>
        <time>2014-10-23T12:47:10Z</time>
      </trkpt>
      <trkpt lat="44.4362" lon="5.70792">
        <ele>728.82</ele>
        <time>2014-10-23T12:47:25Z</time>
      </trkpt>
      <trkpt lat="44.43623" lon="5.70801">
        <ele>726.41</ele>
        <time>2014-10-23T12:47:39Z</time>
      </trkpt>
      <trkpt lat="44.4363" lon="5.70814">
        <ele>723.53</ele>
        <time>2014-10-23T12:47:56Z</time>
      </trkpt>
      <trkpt lat="44.43635" lon="5.70822">
        <ele>720.16</ele>
        <time>2014-10-23T12:48:09Z</time>
      </trkpt>
      <trkpt lat="44.43637" lon="5.70828">
        <ele>716.8</ele>
        <time>2014-10-23T12:48:19Z</time>
      </trkpt>
      <trkpt lat="44.43637" lon="5.70829">
        <ele>716.8</ele>
        <time>2014-10-23T12:48:20Z</time>
      </trkpt>
      <trkpt lat="44.43639" lon="5.70831">
        <ele>715.36</ele>
        <time>2014-10-23T12:48:23Z</time>
      </trkpt>
      <trkpt lat="44.43644" lon="5.70843">
        <ele>711.99</ele>
        <time>2014-10-23T12:48:39Z</time>
      </trkpt>
      <trkpt lat="44.43649" lon="5.70852">
        <ele>709.11</ele>
        <time>2014-10-23T12:48:52Z</time>
      </trkpt>
      <trkpt lat="44.43651" lon="5.70861">
        <ele>708.15</ele>
        <time>2014-10-23T12:49:09Z</time>
      </trkpt>
      <trkpt lat="44.43651" lon="5.70864">
        <ele>708.15</ele>
        <time>2014-10-23T12:49:37Z</time>
      </trkpt>
      <trkpt lat="44.43652" lon="5.70871">
        <ele>706.71</ele>
        <time>2014-10-23T12:49:49Z</time>
      </trkpt>
      <trkpt lat="44.43653" lon="5.7088">
        <ele>705.26</ele>
        <time>2014-10-23T12:50:01Z</time>
      </trkpt>
      <trkpt lat="44.43653" lon="5.70889">
        <ele>705.75</ele>
        <time>2014-10-23T12:50:14Z</time>
      </trkpt>
      <trkpt lat="44.43655" lon="5.70901">
        <ele>703.34</ele>
        <time>2014-10-23T12:50:28Z</time>
      </trkpt>
      <trkpt lat="44.43658" lon="5.70915">
        <ele>701.42</ele>
        <time>2014-10-23T12:50:43Z</time>
      </trkpt>
      <trkpt lat="44.43658" lon="5.70922">
        <ele>701.42</ele>
        <time>2014-10-23T12:50:56Z</time>
      </trkpt>
      <trkpt lat="44.43658" lon="5.70932">
        <ele>699.02</ele>
        <time>2014-10-23T12:51:11Z</time>
      </trkpt>
      <trkpt lat="44.43657" lon="5.7095">
        <ele>697.09</ele>
        <time>2014-10-23T12:51:29Z</time>
      </trkpt>
      <trkpt lat="44.43657" lon="5.70962">
        <ele>695.65</ele>
        <time>2014-10-23T12:51:42Z</time>
      </trkpt>
      <trkpt lat="44.43657" lon="5.70967">
        <ele>693.73</ele>
        <time>2014-10-23T12:51:50Z</time>
      </trkpt>
      <trkpt lat="44.43657" lon="5.70979">
        <ele>695.65</ele>
        <time>2014-10-23T12:52:05Z</time>
      </trkpt>
      <trkpt lat="44.43657" lon="5.7098">
        <ele>695.65</ele>
        <time>2014-10-23T12:52:23Z</time>
      </trkpt>
      <trkpt lat="44.43657" lon="5.70982">
        <ele>695.17</ele>
        <time>2014-10-23T12:52:50Z</time>
      </trkpt>
      <trkpt lat="44.43655" lon="5.7098">
        <ele>695.17</ele>
        <time>2014-10-23T12:53:11Z</time>
      </trkpt>
      <trkpt lat="44.43655" lon="5.70982">
        <ele>693.73</ele>
        <time>2014-10-23T12:53:21Z</time>
      </trkpt>
    </trkseg>
  </trk>
</gpx>